<?xml version="1.0" encoding="UTF-8" standalone="no" ?>
<gpx xmlns="http://www.topografix.com/GPX/1/1" xmlns:xsi="http://www.w3.org/2001/XMLSchema-instance" xsi:schemaLocation="http://www.topografix.com/GPX/1/1 http://www.topografix.com/GPX/1/1/gpx.xsd" version="1.1" creator="VisuGPX - https://www.visugpx.com">
  <metadata>
    <name>Deux boucles entre Le Got et Prats du Périgord</name>
    <desc><![CDATA[Une petite vingtaine de kilomètres sur deux boucles bien roulantes avec malgré tout pas mal de route sur la première.]]></desc>
  </metadata>
  <trk>
    <name><![CDATA[Deux boucles entre Le Got et Prats du Périgord_1]]></name>
    <trkseg>
      <trkpt lat="44.68493" lon="1.01968">
        <ele>205</ele>
        <time>2012-05-28T12:00:54Z</time>
      </trkpt>
      <trkpt lat="44.68463" lon="1.01977">
        <ele>202</ele>
        <time>2012-05-28T12:02:59Z</time>
      </trkpt>
      <trkpt lat="44.68445" lon="1.01983">
        <ele>202</ele>
        <time>2012-05-28T12:03:04Z</time>
      </trkpt>
      <trkpt lat="44.68436" lon="1.01985">
        <ele>201</ele>
        <time>2012-05-28T12:03:27Z</time>
      </trkpt>
      <trkpt lat="44.68432" lon="1.01993">
        <ele>201</ele>
        <time>2012-05-28T12:03:33Z</time>
      </trkpt>
      <trkpt lat="44.68434" lon="1.02013">
        <ele>201</ele>
        <time>2012-05-28T12:03:38Z</time>
      </trkpt>
      <trkpt lat="44.68444" lon="1.02023">
        <ele>201</ele>
        <time>2012-05-28T12:03:43Z</time>
      </trkpt>
      <trkpt lat="44.68456" lon="1.0203">
        <ele>201</ele>
        <time>2012-05-28T12:03:49Z</time>
      </trkpt>
      <trkpt lat="44.68466" lon="1.02047">
        <ele>201</ele>
        <time>2012-05-28T12:03:55Z</time>
      </trkpt>
      <trkpt lat="44.68468" lon="1.02046">
        <ele>201</ele>
        <time>2012-05-28T12:04:12Z</time>
      </trkpt>
      <trkpt lat="44.68483" lon="1.02047">
        <ele>201</ele>
        <time>2012-05-28T12:04:19Z</time>
      </trkpt>
      <trkpt lat="44.68502" lon="1.02053">
        <ele>201</ele>
        <time>2012-05-28T12:04:24Z</time>
      </trkpt>
      <trkpt lat="44.68512" lon="1.02058">
        <ele>203</ele>
        <time>2012-05-28T12:04:29Z</time>
      </trkpt>
      <trkpt lat="44.68518" lon="1.02064">
        <ele>205</ele>
        <time>2012-05-28T12:04:35Z</time>
      </trkpt>
      <trkpt lat="44.68532" lon="1.02075">
        <ele>208</ele>
        <time>2012-05-28T12:04:41Z</time>
      </trkpt>
      <trkpt lat="44.68542" lon="1.02082">
        <ele>209</ele>
        <time>2012-05-28T12:04:47Z</time>
      </trkpt>
      <trkpt lat="44.68556" lon="1.02093">
        <ele>210</ele>
        <time>2012-05-28T12:04:53Z</time>
      </trkpt>
      <trkpt lat="44.68568" lon="1.02104">
        <ele>210</ele>
        <time>2012-05-28T12:04:59Z</time>
      </trkpt>
      <trkpt lat="44.68581" lon="1.02114">
        <ele>210</ele>
        <time>2012-05-28T12:05:04Z</time>
      </trkpt>
      <trkpt lat="44.68591" lon="1.02132">
        <ele>210</ele>
        <time>2012-05-28T12:05:12Z</time>
      </trkpt>
      <trkpt lat="44.68604" lon="1.02145">
        <ele>210</ele>
        <time>2012-05-28T12:05:19Z</time>
      </trkpt>
      <trkpt lat="44.68621" lon="1.0216">
        <ele>213</ele>
        <time>2012-05-28T12:05:25Z</time>
      </trkpt>
      <trkpt lat="44.68632" lon="1.0217">
        <ele>216</ele>
        <time>2012-05-28T12:05:31Z</time>
      </trkpt>
      <trkpt lat="44.68641" lon="1.02176">
        <ele>222</ele>
        <time>2012-05-28T12:05:38Z</time>
      </trkpt>
      <trkpt lat="44.68648" lon="1.02183">
        <ele>228</ele>
        <time>2012-05-28T12:05:44Z</time>
      </trkpt>
      <trkpt lat="44.68661" lon="1.02193">
        <ele>232</ele>
        <time>2012-05-28T12:05:51Z</time>
      </trkpt>
      <trkpt lat="44.68674" lon="1.02202">
        <ele>235</ele>
        <time>2012-05-28T12:05:59Z</time>
      </trkpt>
      <trkpt lat="44.68689" lon="1.02209">
        <ele>238</ele>
        <time>2012-05-28T12:06:07Z</time>
      </trkpt>
      <trkpt lat="44.68701" lon="1.02211">
        <ele>240</ele>
        <time>2012-05-28T12:06:12Z</time>
      </trkpt>
      <trkpt lat="44.68723" lon="1.0221">
        <ele>243</ele>
        <time>2012-05-28T12:06:20Z</time>
      </trkpt>
      <trkpt lat="44.68728" lon="1.02212">
        <ele>246</ele>
        <time>2012-05-28T12:06:28Z</time>
      </trkpt>
      <trkpt lat="44.68735" lon="1.02216">
        <ele>250</ele>
        <time>2012-05-28T12:06:37Z</time>
      </trkpt>
      <trkpt lat="44.68745" lon="1.02219">
        <ele>250</ele>
        <time>2012-05-28T12:06:47Z</time>
      </trkpt>
      <trkpt lat="44.68749" lon="1.02218">
        <ele>250</ele>
        <time>2012-05-28T12:06:55Z</time>
      </trkpt>
      <trkpt lat="44.6876" lon="1.02222">
        <ele>248</ele>
        <time>2012-05-28T12:07:03Z</time>
      </trkpt>
      <trkpt lat="44.68769" lon="1.02231">
        <ele>245</ele>
        <time>2012-05-28T12:07:09Z</time>
      </trkpt>
      <trkpt lat="44.68779" lon="1.02235">
        <ele>242</ele>
        <time>2012-05-28T12:07:15Z</time>
      </trkpt>
      <trkpt lat="44.68786" lon="1.02238">
        <ele>242</ele>
        <time>2012-05-28T12:07:21Z</time>
      </trkpt>
      <trkpt lat="44.68792" lon="1.02243">
        <ele>242</ele>
        <time>2012-05-28T12:07:27Z</time>
      </trkpt>
      <trkpt lat="44.68803" lon="1.02249">
        <ele>243</ele>
        <time>2012-05-28T12:07:34Z</time>
      </trkpt>
      <trkpt lat="44.68818" lon="1.02255">
        <ele>245</ele>
        <time>2012-05-28T12:07:41Z</time>
      </trkpt>
      <trkpt lat="44.68822" lon="1.02258">
        <ele>246</ele>
        <time>2012-05-28T12:07:47Z</time>
      </trkpt>
      <trkpt lat="44.6883" lon="1.02262">
        <ele>247</ele>
        <time>2012-05-28T12:07:53Z</time>
      </trkpt>
      <trkpt lat="44.68843" lon="1.02268">
        <ele>249</ele>
        <time>2012-05-28T12:08:01Z</time>
      </trkpt>
      <trkpt lat="44.68859" lon="1.02272">
        <ele>252</ele>
        <time>2012-05-28T12:08:07Z</time>
      </trkpt>
      <trkpt lat="44.68864" lon="1.02275">
        <ele>252</ele>
        <time>2012-05-28T12:08:14Z</time>
      </trkpt>
      <trkpt lat="44.68871" lon="1.0228">
        <ele>252</ele>
        <time>2012-05-28T12:08:20Z</time>
      </trkpt>
      <trkpt lat="44.6888" lon="1.02286">
        <ele>252</ele>
        <time>2012-05-28T12:08:27Z</time>
      </trkpt>
      <trkpt lat="44.68893" lon="1.02289">
        <ele>255</ele>
        <time>2012-05-28T12:08:34Z</time>
      </trkpt>
      <trkpt lat="44.68908" lon="1.02292">
        <ele>255</ele>
        <time>2012-05-28T12:08:41Z</time>
      </trkpt>
      <trkpt lat="44.6892" lon="1.02304">
        <ele>255</ele>
        <time>2012-05-28T12:08:48Z</time>
      </trkpt>
      <trkpt lat="44.68933" lon="1.02317">
        <ele>255</ele>
        <time>2012-05-28T12:08:54Z</time>
      </trkpt>
      <trkpt lat="44.68947" lon="1.0233">
        <ele>255</ele>
        <time>2012-05-28T12:09:01Z</time>
      </trkpt>
      <trkpt lat="44.68974" lon="1.0235">
        <ele>255</ele>
        <time>2012-05-28T12:09:07Z</time>
      </trkpt>
      <trkpt lat="44.68992" lon="1.02358">
        <ele>256</ele>
        <time>2012-05-28T12:09:14Z</time>
      </trkpt>
      <trkpt lat="44.69001" lon="1.02361">
        <ele>256</ele>
        <time>2012-05-28T12:09:21Z</time>
      </trkpt>
      <trkpt lat="44.69016" lon="1.0236">
        <ele>256</ele>
        <time>2012-05-28T12:09:28Z</time>
      </trkpt>
      <trkpt lat="44.69034" lon="1.02359">
        <ele>258</ele>
        <time>2012-05-28T12:09:35Z</time>
      </trkpt>
      <trkpt lat="44.69052" lon="1.02359">
        <ele>261</ele>
        <time>2012-05-28T12:09:42Z</time>
      </trkpt>
      <trkpt lat="44.69069" lon="1.0236">
        <ele>263</ele>
        <time>2012-05-28T12:09:49Z</time>
      </trkpt>
      <trkpt lat="44.69092" lon="1.02362">
        <ele>264</ele>
        <time>2012-05-28T12:09:56Z</time>
      </trkpt>
      <trkpt lat="44.69112" lon="1.02366">
        <ele>264</ele>
        <time>2012-05-28T12:10:03Z</time>
      </trkpt>
      <trkpt lat="44.69128" lon="1.02379">
        <ele>264</ele>
        <time>2012-05-28T12:10:10Z</time>
      </trkpt>
      <trkpt lat="44.69144" lon="1.02386">
        <ele>264</ele>
        <time>2012-05-28T12:10:17Z</time>
      </trkpt>
      <trkpt lat="44.69157" lon="1.02389">
        <ele>264</ele>
        <time>2012-05-28T12:10:23Z</time>
      </trkpt>
      <trkpt lat="44.69161" lon="1.0238">
        <ele>264</ele>
        <time>2012-05-28T12:10:31Z</time>
      </trkpt>
      <trkpt lat="44.69159" lon="1.02378">
        <ele>264</ele>
        <time>2012-05-28T12:10:39Z</time>
      </trkpt>
      <trkpt lat="44.69165" lon="1.02377">
        <ele>264</ele>
        <time>2012-05-28T12:10:47Z</time>
      </trkpt>
      <trkpt lat="44.69163" lon="1.02378">
        <ele>264</ele>
        <time>2012-05-28T12:10:55Z</time>
      </trkpt>
      <trkpt lat="44.69164" lon="1.02375">
        <ele>261</ele>
        <time>2012-05-28T12:11:03Z</time>
      </trkpt>
      <trkpt lat="44.69165" lon="1.02373">
        <ele>261</ele>
        <time>2012-05-28T12:11:10Z</time>
      </trkpt>
      <trkpt lat="44.69168" lon="1.02372">
        <ele>261</ele>
        <time>2012-05-28T12:11:19Z</time>
      </trkpt>
      <trkpt lat="44.69165" lon="1.02372">
        <ele>263</ele>
        <time>2012-05-28T12:11:26Z</time>
      </trkpt>
      <trkpt lat="44.69162" lon="1.02373">
        <ele>264</ele>
        <time>2012-05-28T12:11:34Z</time>
      </trkpt>
      <trkpt lat="44.69179" lon="1.02381">
        <ele>264</ele>
        <time>2012-05-28T12:11:41Z</time>
      </trkpt>
      <trkpt lat="44.69196" lon="1.02383">
        <ele>264</ele>
        <time>2012-05-28T12:11:47Z</time>
      </trkpt>
      <trkpt lat="44.69223" lon="1.02397">
        <ele>264</ele>
        <time>2012-05-28T12:11:53Z</time>
      </trkpt>
      <trkpt lat="44.69236" lon="1.02403">
        <ele>265</ele>
        <time>2012-05-28T12:12:00Z</time>
      </trkpt>
      <trkpt lat="44.6926" lon="1.02413">
        <ele>265</ele>
        <time>2012-05-28T12:12:06Z</time>
      </trkpt>
      <trkpt lat="44.69305" lon="1.02442">
        <ele>268</ele>
        <time>2012-05-28T12:12:12Z</time>
      </trkpt>
      <trkpt lat="44.69316" lon="1.02449">
        <ele>269</ele>
        <time>2012-05-28T12:12:18Z</time>
      </trkpt>
      <trkpt lat="44.69324" lon="1.02457">
        <ele>269</ele>
        <time>2012-05-28T12:12:27Z</time>
      </trkpt>
      <trkpt lat="44.6933" lon="1.02462">
        <ele>269</ele>
        <time>2012-05-28T12:12:35Z</time>
      </trkpt>
      <trkpt lat="44.69334" lon="1.02468">
        <ele>269</ele>
        <time>2012-05-28T12:12:43Z</time>
      </trkpt>
      <trkpt lat="44.69339" lon="1.02481">
        <ele>267</ele>
        <time>2012-05-28T12:12:49Z</time>
      </trkpt>
      <trkpt lat="44.69347" lon="1.02503">
        <ele>263</ele>
        <time>2012-05-28T12:12:58Z</time>
      </trkpt>
      <trkpt lat="44.69363" lon="1.02526">
        <ele>263</ele>
        <time>2012-05-28T12:13:07Z</time>
      </trkpt>
      <trkpt lat="44.69385" lon="1.0254">
        <ele>264</ele>
        <time>2012-05-28T12:13:14Z</time>
      </trkpt>
      <trkpt lat="44.69407" lon="1.02556">
        <ele>265</ele>
        <time>2012-05-28T12:13:22Z</time>
      </trkpt>
      <trkpt lat="44.69434" lon="1.02582">
        <ele>265</ele>
        <time>2012-05-28T12:13:29Z</time>
      </trkpt>
      <trkpt lat="44.69446" lon="1.02595">
        <ele>265</ele>
        <time>2012-05-28T12:13:35Z</time>
      </trkpt>
      <trkpt lat="44.69463" lon="1.02579">
        <ele>265</ele>
        <time>2012-05-28T12:13:44Z</time>
      </trkpt>
      <trkpt lat="44.69473" lon="1.02587">
        <ele>265</ele>
        <time>2012-05-28T12:13:53Z</time>
      </trkpt>
      <trkpt lat="44.69487" lon="1.02609">
        <ele>263</ele>
        <time>2012-05-28T12:13:59Z</time>
      </trkpt>
      <trkpt lat="44.69508" lon="1.02639">
        <ele>261</ele>
        <time>2012-05-28T12:14:05Z</time>
      </trkpt>
      <trkpt lat="44.69523" lon="1.02662">
        <ele>260</ele>
        <time>2012-05-28T12:14:12Z</time>
      </trkpt>
      <trkpt lat="44.69529" lon="1.02671">
        <ele>260</ele>
        <time>2012-05-28T12:14:19Z</time>
      </trkpt>
      <trkpt lat="44.69545" lon="1.02692">
        <ele>260</ele>
        <time>2012-05-28T12:14:26Z</time>
      </trkpt>
      <trkpt lat="44.69564" lon="1.0271">
        <ele>260</ele>
        <time>2012-05-28T12:14:33Z</time>
      </trkpt>
      <trkpt lat="44.69584" lon="1.02724">
        <ele>260</ele>
        <time>2012-05-28T12:14:40Z</time>
      </trkpt>
      <trkpt lat="44.69603" lon="1.02735">
        <ele>261</ele>
        <time>2012-05-28T12:14:47Z</time>
      </trkpt>
      <trkpt lat="44.69624" lon="1.02745">
        <ele>263</ele>
        <time>2012-05-28T12:14:54Z</time>
      </trkpt>
      <trkpt lat="44.69642" lon="1.02758">
        <ele>265</ele>
        <time>2012-05-28T12:15:01Z</time>
      </trkpt>
      <trkpt lat="44.69661" lon="1.02768">
        <ele>266</ele>
        <time>2012-05-28T12:15:07Z</time>
      </trkpt>
      <trkpt lat="44.69678" lon="1.02778">
        <ele>267</ele>
        <time>2012-05-28T12:15:13Z</time>
      </trkpt>
      <trkpt lat="44.69695" lon="1.02786">
        <ele>268</ele>
        <time>2012-05-28T12:15:18Z</time>
      </trkpt>
      <trkpt lat="44.69712" lon="1.02795">
        <ele>268</ele>
        <time>2012-05-28T12:15:24Z</time>
      </trkpt>
      <trkpt lat="44.69729" lon="1.02805">
        <ele>268</ele>
        <time>2012-05-28T12:15:30Z</time>
      </trkpt>
      <trkpt lat="44.69748" lon="1.02813">
        <ele>270</ele>
        <time>2012-05-28T12:15:36Z</time>
      </trkpt>
      <trkpt lat="44.69765" lon="1.02822">
        <ele>272</ele>
        <time>2012-05-28T12:15:43Z</time>
      </trkpt>
      <trkpt lat="44.69782" lon="1.02832">
        <ele>273</ele>
        <time>2012-05-28T12:15:49Z</time>
      </trkpt>
      <trkpt lat="44.69798" lon="1.02846">
        <ele>274</ele>
        <time>2012-05-28T12:15:55Z</time>
      </trkpt>
      <trkpt lat="44.69816" lon="1.02867">
        <ele>274</ele>
        <time>2012-05-28T12:16:01Z</time>
      </trkpt>
      <trkpt lat="44.69836" lon="1.02899">
        <ele>275</ele>
        <time>2012-05-28T12:16:07Z</time>
      </trkpt>
      <trkpt lat="44.6985" lon="1.0294">
        <ele>275</ele>
        <time>2012-05-28T12:16:13Z</time>
      </trkpt>
      <trkpt lat="44.69857" lon="1.02981">
        <ele>275</ele>
        <time>2012-05-28T12:16:19Z</time>
      </trkpt>
      <trkpt lat="44.69864" lon="1.03021">
        <ele>275</ele>
        <time>2012-05-28T12:16:25Z</time>
      </trkpt>
      <trkpt lat="44.69878" lon="1.03078">
        <ele>277</ele>
        <time>2012-05-28T12:16:31Z</time>
      </trkpt>
      <trkpt lat="44.69883" lon="1.03096">
        <ele>279</ele>
        <time>2012-05-28T12:16:38Z</time>
      </trkpt>
      <trkpt lat="44.69894" lon="1.03138">
        <ele>279</ele>
        <time>2012-05-28T12:16:44Z</time>
      </trkpt>
      <trkpt lat="44.69884" lon="1.03187">
        <ele>279</ele>
        <time>2012-05-28T12:16:52Z</time>
      </trkpt>
      <trkpt lat="44.69874" lon="1.03227">
        <ele>279</ele>
        <time>2012-05-28T12:16:58Z</time>
      </trkpt>
      <trkpt lat="44.69858" lon="1.03271">
        <ele>279</ele>
        <time>2012-05-28T12:17:04Z</time>
      </trkpt>
      <trkpt lat="44.6983" lon="1.03319">
        <ele>278</ele>
        <time>2012-05-28T12:17:11Z</time>
      </trkpt>
      <trkpt lat="44.69791" lon="1.03371">
        <ele>277</ele>
        <time>2012-05-28T12:17:17Z</time>
      </trkpt>
      <trkpt lat="44.69778" lon="1.03387">
        <ele>276</ele>
        <time>2012-05-28T12:17:24Z</time>
      </trkpt>
      <trkpt lat="44.69744" lon="1.03427">
        <ele>275</ele>
        <time>2012-05-28T12:17:30Z</time>
      </trkpt>
      <trkpt lat="44.69712" lon="1.03463">
        <ele>274</ele>
        <time>2012-05-28T12:17:37Z</time>
      </trkpt>
      <trkpt lat="44.69655" lon="1.03515">
        <ele>273</ele>
        <time>2012-05-28T12:17:43Z</time>
      </trkpt>
      <trkpt lat="44.69637" lon="1.03528">
        <ele>272</ele>
        <time>2012-05-28T12:17:50Z</time>
      </trkpt>
      <trkpt lat="44.69588" lon="1.03559">
        <ele>271</ele>
        <time>2012-05-28T12:17:56Z</time>
      </trkpt>
      <trkpt lat="44.69508" lon="1.03599">
        <ele>269</ele>
        <time>2012-05-28T12:18:03Z</time>
      </trkpt>
      <trkpt lat="44.69482" lon="1.0363">
        <ele>268</ele>
        <time>2012-05-28T12:18:10Z</time>
      </trkpt>
      <trkpt lat="44.6943" lon="1.03665">
        <ele>268</ele>
        <time>2012-05-28T12:18:18Z</time>
      </trkpt>
      <trkpt lat="44.69392" lon="1.03699">
        <ele>268</ele>
        <time>2012-05-28T12:18:25Z</time>
      </trkpt>
      <trkpt lat="44.69362" lon="1.0374">
        <ele>266</ele>
        <time>2012-05-28T12:18:32Z</time>
      </trkpt>
      <trkpt lat="44.69329" lon="1.03784">
        <ele>263</ele>
        <time>2012-05-28T12:18:39Z</time>
      </trkpt>
      <trkpt lat="44.69298" lon="1.03823">
        <ele>262</ele>
        <time>2012-05-28T12:18:45Z</time>
      </trkpt>
      <trkpt lat="44.69279" lon="1.03799">
        <ele>262</ele>
        <time>2012-05-28T12:18:54Z</time>
      </trkpt>
      <trkpt lat="44.69277" lon="1.03738">
        <ele>262</ele>
        <time>2012-05-28T12:19:01Z</time>
      </trkpt>
      <trkpt lat="44.69291" lon="1.03663">
        <ele>262</ele>
        <time>2012-05-28T12:19:09Z</time>
      </trkpt>
      <trkpt lat="44.69321" lon="1.03586">
        <ele>262</ele>
        <time>2012-05-28T12:19:16Z</time>
      </trkpt>
      <trkpt lat="44.69348" lon="1.03545">
        <ele>261</ele>
        <time>2012-05-28T12:19:22Z</time>
      </trkpt>
      <trkpt lat="44.69375" lon="1.03507">
        <ele>258</ele>
        <time>2012-05-28T12:19:28Z</time>
      </trkpt>
      <trkpt lat="44.69366" lon="1.03468">
        <ele>253</ele>
        <time>2012-05-28T12:19:36Z</time>
      </trkpt>
      <trkpt lat="44.69361" lon="1.03432">
        <ele>250</ele>
        <time>2012-05-28T12:19:44Z</time>
      </trkpt>
      <trkpt lat="44.69352" lon="1.03406">
        <ele>246</ele>
        <time>2012-05-28T12:19:51Z</time>
      </trkpt>
      <trkpt lat="44.69343" lon="1.03388">
        <ele>243</ele>
        <time>2012-05-28T12:19:57Z</time>
      </trkpt>
      <trkpt lat="44.69335" lon="1.03368">
        <ele>240</ele>
        <time>2012-05-28T12:20:03Z</time>
      </trkpt>
      <trkpt lat="44.69313" lon="1.03328">
        <ele>237</ele>
        <time>2012-05-28T12:20:09Z</time>
      </trkpt>
      <trkpt lat="44.69299" lon="1.03307">
        <ele>235</ele>
        <time>2012-05-28T12:20:15Z</time>
      </trkpt>
      <trkpt lat="44.69287" lon="1.03303">
        <ele>232</ele>
        <time>2012-05-28T12:20:22Z</time>
      </trkpt>
      <trkpt lat="44.69264" lon="1.03311">
        <ele>228</ele>
        <time>2012-05-28T12:20:29Z</time>
      </trkpt>
      <trkpt lat="44.69236" lon="1.03307">
        <ele>227</ele>
        <time>2012-05-28T12:20:36Z</time>
      </trkpt>
      <trkpt lat="44.69191" lon="1.03298">
        <ele>227</ele>
        <time>2012-05-28T12:20:42Z</time>
      </trkpt>
      <trkpt lat="44.69171" lon="1.03282">
        <ele>226</ele>
        <time>2012-05-28T12:20:49Z</time>
      </trkpt>
      <trkpt lat="44.69147" lon="1.03251">
        <ele>225</ele>
        <time>2012-05-28T12:20:56Z</time>
      </trkpt>
      <trkpt lat="44.69128" lon="1.03215">
        <ele>225</ele>
        <time>2012-05-28T12:21:02Z</time>
      </trkpt>
      <trkpt lat="44.6911" lon="1.0317">
        <ele>225</ele>
        <time>2012-05-28T12:21:08Z</time>
      </trkpt>
      <trkpt lat="44.69082" lon="1.03128">
        <ele>224</ele>
        <time>2012-05-28T12:21:15Z</time>
      </trkpt>
      <trkpt lat="44.69044" lon="1.03084">
        <ele>222</ele>
        <time>2012-05-28T12:21:21Z</time>
      </trkpt>
      <trkpt lat="44.69036" lon="1.03074">
        <ele>220</ele>
        <time>2012-05-28T12:21:28Z</time>
      </trkpt>
      <trkpt lat="44.69028" lon="1.03065">
        <ele>217</ele>
        <time>2012-05-28T12:21:34Z</time>
      </trkpt>
      <trkpt lat="44.6901" lon="1.03046">
        <ele>216</ele>
        <time>2012-05-28T12:21:40Z</time>
      </trkpt>
      <trkpt lat="44.68967" lon="1.03016">
        <ele>216</ele>
        <time>2012-05-28T12:21:46Z</time>
      </trkpt>
      <trkpt lat="44.68949" lon="1.03003">
        <ele>214</ele>
        <time>2012-05-28T12:21:53Z</time>
      </trkpt>
      <trkpt lat="44.68923" lon="1.02982">
        <ele>214</ele>
        <time>2012-05-28T12:21:59Z</time>
      </trkpt>
      <trkpt lat="44.68902" lon="1.02982">
        <ele>213</ele>
        <time>2012-05-28T12:22:07Z</time>
      </trkpt>
      <trkpt lat="44.68893" lon="1.03005">
        <ele>213</ele>
        <time>2012-05-28T12:22:15Z</time>
      </trkpt>
      <trkpt lat="44.68883" lon="1.0304">
        <ele>213</ele>
        <time>2012-05-28T12:22:22Z</time>
      </trkpt>
      <trkpt lat="44.68842" lon="1.03033">
        <ele>213</ele>
        <time>2012-05-28T12:22:31Z</time>
      </trkpt>
      <trkpt lat="44.68832" lon="1.03027">
        <ele>213</ele>
        <time>2012-05-28T12:22:37Z</time>
      </trkpt>
      <trkpt lat="44.68813" lon="1.03013">
        <ele>213</ele>
        <time>2012-05-28T12:22:44Z</time>
      </trkpt>
      <trkpt lat="44.68796" lon="1.02996">
        <ele>213</ele>
        <time>2012-05-28T12:22:50Z</time>
      </trkpt>
      <trkpt lat="44.68786" lon="1.0298">
        <ele>215</ele>
        <time>2012-05-28T12:22:56Z</time>
      </trkpt>
      <trkpt lat="44.68769" lon="1.02959">
        <ele>218</ele>
        <time>2012-05-28T12:23:03Z</time>
      </trkpt>
      <trkpt lat="44.68745" lon="1.02974">
        <ele>218</ele>
        <time>2012-05-28T12:23:11Z</time>
      </trkpt>
      <trkpt lat="44.68729" lon="1.02989">
        <ele>218</ele>
        <time>2012-05-28T12:23:17Z</time>
      </trkpt>
      <trkpt lat="44.68709" lon="1.03006">
        <ele>219</ele>
        <time>2012-05-28T12:23:24Z</time>
      </trkpt>
      <trkpt lat="44.68698" lon="1.03043">
        <ele>219</ele>
        <time>2012-05-28T12:23:31Z</time>
      </trkpt>
      <trkpt lat="44.68694" lon="1.03075">
        <ele>219</ele>
        <time>2012-05-28T12:23:38Z</time>
      </trkpt>
      <trkpt lat="44.68695" lon="1.03114">
        <ele>223</ele>
        <time>2012-05-28T12:23:45Z</time>
      </trkpt>
      <trkpt lat="44.68681" lon="1.03145">
        <ele>227</ele>
        <time>2012-05-28T12:23:53Z</time>
      </trkpt>
      <trkpt lat="44.68656" lon="1.03187">
        <ele>228</ele>
        <time>2012-05-28T12:23:59Z</time>
      </trkpt>
      <trkpt lat="44.6865" lon="1.032">
        <ele>229</ele>
        <time>2012-05-28T12:24:06Z</time>
      </trkpt>
      <trkpt lat="44.68636" lon="1.0323">
        <ele>229</ele>
        <time>2012-05-28T12:24:12Z</time>
      </trkpt>
      <trkpt lat="44.68624" lon="1.03261">
        <ele>231</ele>
        <time>2012-05-28T12:24:19Z</time>
      </trkpt>
      <trkpt lat="44.68617" lon="1.03285">
        <ele>233</ele>
        <time>2012-05-28T12:24:26Z</time>
      </trkpt>
      <trkpt lat="44.68611" lon="1.03312">
        <ele>234</ele>
        <time>2012-05-28T12:24:32Z</time>
      </trkpt>
      <trkpt lat="44.68603" lon="1.03338">
        <ele>234</ele>
        <time>2012-05-28T12:24:39Z</time>
      </trkpt>
      <trkpt lat="44.68596" lon="1.03359">
        <ele>235</ele>
        <time>2012-05-28T12:24:46Z</time>
      </trkpt>
      <trkpt lat="44.68587" lon="1.03398">
        <ele>236</ele>
        <time>2012-05-28T12:24:52Z</time>
      </trkpt>
      <trkpt lat="44.68586" lon="1.03406">
        <ele>237</ele>
        <time>2012-05-28T12:24:58Z</time>
      </trkpt>
      <trkpt lat="44.68579" lon="1.0343">
        <ele>239</ele>
        <time>2012-05-28T12:25:05Z</time>
      </trkpt>
      <trkpt lat="44.68572" lon="1.03465">
        <ele>242</ele>
        <time>2012-05-28T12:25:11Z</time>
      </trkpt>
      <trkpt lat="44.68572" lon="1.03491">
        <ele>243</ele>
        <time>2012-05-28T12:25:18Z</time>
      </trkpt>
      <trkpt lat="44.68574" lon="1.03502">
        <ele>245</ele>
        <time>2012-05-28T12:25:25Z</time>
      </trkpt>
      <trkpt lat="44.6858" lon="1.03528">
        <ele>247</ele>
        <time>2012-05-28T12:25:32Z</time>
      </trkpt>
      <trkpt lat="44.68582" lon="1.03558">
        <ele>249</ele>
        <time>2012-05-28T12:25:38Z</time>
      </trkpt>
      <trkpt lat="44.68584" lon="1.03608">
        <ele>252</ele>
        <time>2012-05-28T12:25:45Z</time>
      </trkpt>
      <trkpt lat="44.68585" lon="1.03647">
        <ele>254</ele>
        <time>2012-05-28T12:25:52Z</time>
      </trkpt>
      <trkpt lat="44.68586" lon="1.03663">
        <ele>255</ele>
        <time>2012-05-28T12:25:59Z</time>
      </trkpt>
      <trkpt lat="44.68592" lon="1.03697">
        <ele>256</ele>
        <time>2012-05-28T12:26:06Z</time>
      </trkpt>
      <trkpt lat="44.68599" lon="1.03735">
        <ele>257</ele>
        <time>2012-05-28T12:26:13Z</time>
      </trkpt>
      <trkpt lat="44.686" lon="1.03776">
        <ele>258</ele>
        <time>2012-05-28T12:26:19Z</time>
      </trkpt>
      <trkpt lat="44.68604" lon="1.03817">
        <ele>259</ele>
        <time>2012-05-28T12:26:26Z</time>
      </trkpt>
      <trkpt lat="44.68616" lon="1.03863">
        <ele>259</ele>
        <time>2012-05-28T12:26:36Z</time>
      </trkpt>
      <trkpt lat="44.68617" lon="1.03903">
        <ele>260</ele>
        <time>2012-05-28T12:26:44Z</time>
      </trkpt>
      <trkpt lat="44.68603" lon="1.03923">
        <ele>260</ele>
        <time>2012-05-28T12:26:52Z</time>
      </trkpt>
      <trkpt lat="44.68581" lon="1.03955">
        <ele>260</ele>
        <time>2012-05-28T12:26:59Z</time>
      </trkpt>
      <trkpt lat="44.68579" lon="1.04033">
        <ele>259</ele>
        <time>2012-05-28T12:27:07Z</time>
      </trkpt>
      <trkpt lat="44.68583" lon="1.0411">
        <ele>256</ele>
        <time>2012-05-28T12:27:14Z</time>
      </trkpt>
      <trkpt lat="44.68569" lon="1.04185">
        <ele>253</ele>
        <time>2012-05-28T12:27:21Z</time>
      </trkpt>
      <trkpt lat="44.68546" lon="1.04258">
        <ele>250</ele>
        <time>2012-05-28T12:27:28Z</time>
      </trkpt>
      <trkpt lat="44.68521" lon="1.04386">
        <ele>247</ele>
        <time>2012-05-28T12:27:35Z</time>
      </trkpt>
      <trkpt lat="44.68521" lon="1.04466">
        <ele>245</ele>
        <time>2012-05-28T12:27:42Z</time>
      </trkpt>
      <trkpt lat="44.68528" lon="1.04515">
        <ele>244</ele>
        <time>2012-05-28T12:27:50Z</time>
      </trkpt>
      <trkpt lat="44.68531" lon="1.04533">
        <ele>244</ele>
        <time>2012-05-28T12:27:57Z</time>
      </trkpt>
      <trkpt lat="44.68525" lon="1.04566">
        <ele>244</ele>
        <time>2012-05-28T12:28:03Z</time>
      </trkpt>
      <trkpt lat="44.68515" lon="1.04589">
        <ele>248</ele>
        <time>2012-05-28T12:28:11Z</time>
      </trkpt>
      <trkpt lat="44.68511" lon="1.04617">
        <ele>252</ele>
        <time>2012-05-28T12:28:17Z</time>
      </trkpt>
      <trkpt lat="44.68505" lon="1.04656">
        <ele>255</ele>
        <time>2012-05-28T12:28:23Z</time>
      </trkpt>
      <trkpt lat="44.68499" lon="1.04701">
        <ele>256</ele>
        <time>2012-05-28T12:28:29Z</time>
      </trkpt>
      <trkpt lat="44.68486" lon="1.0475">
        <ele>256</ele>
        <time>2012-05-28T12:28:37Z</time>
      </trkpt>
      <trkpt lat="44.68494" lon="1.04808">
        <ele>253</ele>
        <time>2012-05-28T12:28:44Z</time>
      </trkpt>
      <trkpt lat="44.68502" lon="1.04839">
        <ele>252</ele>
        <time>2012-05-28T12:28:50Z</time>
      </trkpt>
      <trkpt lat="44.68502" lon="1.04875">
        <ele>252</ele>
        <time>2012-05-28T12:28:59Z</time>
      </trkpt>
      <trkpt lat="44.68492" lon="1.049">
        <ele>252</ele>
        <time>2012-05-28T12:29:04Z</time>
      </trkpt>
      <trkpt lat="44.68488" lon="1.04946">
        <ele>251</ele>
        <time>2012-05-28T12:29:13Z</time>
      </trkpt>
      <trkpt lat="44.68491" lon="1.04985">
        <ele>250</ele>
        <time>2012-05-28T12:29:18Z</time>
      </trkpt>
      <trkpt lat="44.68494" lon="1.05012">
        <ele>250</ele>
        <time>2012-05-28T12:29:24Z</time>
      </trkpt>
      <trkpt lat="44.68503" lon="1.05041">
        <ele>250</ele>
        <time>2012-05-28T12:29:31Z</time>
      </trkpt>
      <trkpt lat="44.68514" lon="1.05067">
        <ele>250</ele>
        <time>2012-05-28T12:29:37Z</time>
      </trkpt>
      <trkpt lat="44.68533" lon="1.051">
        <ele>250</ele>
        <time>2012-05-28T12:29:43Z</time>
      </trkpt>
      <trkpt lat="44.68542" lon="1.05124">
        <ele>250</ele>
        <time>2012-05-28T12:29:49Z</time>
      </trkpt>
      <trkpt lat="44.68555" lon="1.05145">
        <ele>250</ele>
        <time>2012-05-28T12:29:55Z</time>
      </trkpt>
      <trkpt lat="44.68566" lon="1.05155">
        <ele>251</ele>
        <time>2012-05-28T12:30:02Z</time>
      </trkpt>
      <trkpt lat="44.68582" lon="1.05177">
        <ele>251</ele>
        <time>2012-05-28T12:30:08Z</time>
      </trkpt>
      <trkpt lat="44.68596" lon="1.05201">
        <ele>251</ele>
        <time>2012-05-28T12:30:14Z</time>
      </trkpt>
      <trkpt lat="44.68612" lon="1.05225">
        <ele>251</ele>
        <time>2012-05-28T12:30:20Z</time>
      </trkpt>
      <trkpt lat="44.68634" lon="1.05257">
        <ele>251</ele>
        <time>2012-05-28T12:30:26Z</time>
      </trkpt>
      <trkpt lat="44.68645" lon="1.05274">
        <ele>251</ele>
        <time>2012-05-28T12:30:32Z</time>
      </trkpt>
      <trkpt lat="44.6865" lon="1.05285">
        <ele>250</ele>
        <time>2012-05-28T12:30:38Z</time>
      </trkpt>
      <trkpt lat="44.68665" lon="1.0531">
        <ele>250</ele>
        <time>2012-05-28T12:30:46Z</time>
      </trkpt>
      <trkpt lat="44.68678" lon="1.05329">
        <ele>250</ele>
        <time>2012-05-28T12:30:52Z</time>
      </trkpt>
      <trkpt lat="44.68694" lon="1.05348">
        <ele>250</ele>
        <time>2012-05-28T12:30:58Z</time>
      </trkpt>
      <trkpt lat="44.68725" lon="1.05386">
        <ele>250</ele>
        <time>2012-05-28T12:31:04Z</time>
      </trkpt>
      <trkpt lat="44.68736" lon="1.05432">
        <ele>249</ele>
        <time>2012-05-28T12:31:10Z</time>
      </trkpt>
      <trkpt lat="44.68743" lon="1.05479">
        <ele>246</ele>
        <time>2012-05-28T12:31:17Z</time>
      </trkpt>
      <trkpt lat="44.68754" lon="1.0555">
        <ele>243</ele>
        <time>2012-05-28T12:31:23Z</time>
      </trkpt>
      <trkpt lat="44.6877" lon="1.05584">
        <ele>238</ele>
        <time>2012-05-28T12:31:30Z</time>
      </trkpt>
      <trkpt lat="44.68803" lon="1.05608">
        <ele>234</ele>
        <time>2012-05-28T12:31:37Z</time>
      </trkpt>
      <trkpt lat="44.68838" lon="1.05651">
        <ele>232</ele>
        <time>2012-05-28T12:31:44Z</time>
      </trkpt>
      <trkpt lat="44.68869" lon="1.0571">
        <ele>231</ele>
        <time>2012-05-28T12:31:50Z</time>
      </trkpt>
      <trkpt lat="44.68908" lon="1.05816">
        <ele>229</ele>
        <time>2012-05-28T12:31:56Z</time>
      </trkpt>
      <trkpt lat="44.68916" lon="1.05867">
        <ele>224</ele>
        <time>2012-05-28T12:32:03Z</time>
      </trkpt>
      <trkpt lat="44.68922" lon="1.0591">
        <ele>216</ele>
        <time>2012-05-28T12:32:09Z</time>
      </trkpt>
      <trkpt lat="44.68946" lon="1.05922">
        <ele>207</ele>
        <time>2012-05-28T12:32:17Z</time>
      </trkpt>
      <trkpt lat="44.68972" lon="1.05929">
        <ele>204</ele>
        <time>2012-05-28T12:32:24Z</time>
      </trkpt>
      <trkpt lat="44.68998" lon="1.05924">
        <ele>205</ele>
        <time>2012-05-28T12:32:31Z</time>
      </trkpt>
      <trkpt lat="44.69026" lon="1.05904">
        <ele>206</ele>
        <time>2012-05-28T12:32:38Z</time>
      </trkpt>
      <trkpt lat="44.69064" lon="1.05856">
        <ele>206</ele>
        <time>2012-05-28T12:32:44Z</time>
      </trkpt>
      <trkpt lat="44.69073" lon="1.05835">
        <ele>204</ele>
        <time>2012-05-28T12:32:51Z</time>
      </trkpt>
      <trkpt lat="44.69077" lon="1.0579">
        <ele>204</ele>
        <time>2012-05-28T12:32:58Z</time>
      </trkpt>
      <trkpt lat="44.69077" lon="1.0575">
        <ele>204</ele>
        <time>2012-05-28T12:33:04Z</time>
      </trkpt>
      <trkpt lat="44.69078" lon="1.05712">
        <ele>207</ele>
        <time>2012-05-28T12:33:10Z</time>
      </trkpt>
      <trkpt lat="44.69083" lon="1.05664">
        <ele>210</ele>
        <time>2012-05-28T12:33:17Z</time>
      </trkpt>
      <trkpt lat="44.69097" lon="1.05612">
        <ele>215</ele>
        <time>2012-05-28T12:33:23Z</time>
      </trkpt>
      <trkpt lat="44.69101" lon="1.05598">
        <ele>217</ele>
        <time>2012-05-28T12:33:30Z</time>
      </trkpt>
      <trkpt lat="44.6911" lon="1.05574">
        <ele>220</ele>
        <time>2012-05-28T12:33:36Z</time>
      </trkpt>
      <trkpt lat="44.69117" lon="1.05558">
        <ele>224</ele>
        <time>2012-05-28T12:33:43Z</time>
      </trkpt>
      <trkpt lat="44.69123" lon="1.05538">
        <ele>228</ele>
        <time>2012-05-28T12:33:50Z</time>
      </trkpt>
      <trkpt lat="44.69129" lon="1.05511">
        <ele>229</ele>
        <time>2012-05-28T12:33:56Z</time>
      </trkpt>
      <trkpt lat="44.69131" lon="1.05491">
        <ele>229</ele>
        <time>2012-05-28T12:34:03Z</time>
      </trkpt>
      <trkpt lat="44.6913" lon="1.05477">
        <ele>229</ele>
        <time>2012-05-28T12:34:10Z</time>
      </trkpt>
      <trkpt lat="44.69127" lon="1.05461">
        <ele>230</ele>
        <time>2012-05-28T12:34:16Z</time>
      </trkpt>
      <trkpt lat="44.69121" lon="1.0544">
        <ele>231</ele>
        <time>2012-05-28T12:34:23Z</time>
      </trkpt>
      <trkpt lat="44.69116" lon="1.0542">
        <ele>231</ele>
        <time>2012-05-28T12:34:29Z</time>
      </trkpt>
      <trkpt lat="44.6911" lon="1.054">
        <ele>231</ele>
        <time>2012-05-28T12:34:36Z</time>
      </trkpt>
      <trkpt lat="44.69107" lon="1.05383">
        <ele>231</ele>
        <time>2012-05-28T12:34:42Z</time>
      </trkpt>
      <trkpt lat="44.69103" lon="1.05362">
        <ele>231</ele>
        <time>2012-05-28T12:34:49Z</time>
      </trkpt>
      <trkpt lat="44.69111" lon="1.05348">
        <ele>231</ele>
        <time>2012-05-28T12:34:57Z</time>
      </trkpt>
      <trkpt lat="44.69154" lon="1.05314">
        <ele>232</ele>
        <time>2012-05-28T12:35:04Z</time>
      </trkpt>
      <trkpt lat="44.69176" lon="1.05293">
        <ele>233</ele>
        <time>2012-05-28T12:35:11Z</time>
      </trkpt>
      <trkpt lat="44.69208" lon="1.05258">
        <ele>233</ele>
        <time>2012-05-28T12:35:17Z</time>
      </trkpt>
      <trkpt lat="44.69229" lon="1.05232">
        <ele>235</ele>
        <time>2012-05-28T12:35:24Z</time>
      </trkpt>
      <trkpt lat="44.69246" lon="1.05209">
        <ele>235</ele>
        <time>2012-05-28T12:35:30Z</time>
      </trkpt>
      <trkpt lat="44.69267" lon="1.05181">
        <ele>235</ele>
        <time>2012-05-28T12:35:37Z</time>
      </trkpt>
      <trkpt lat="44.69276" lon="1.052">
        <ele>235</ele>
        <time>2012-05-28T12:35:45Z</time>
      </trkpt>
      <trkpt lat="44.69285" lon="1.0526">
        <ele>235</ele>
        <time>2012-05-28T12:35:51Z</time>
      </trkpt>
      <trkpt lat="44.69319" lon="1.05293">
        <ele>235</ele>
        <time>2012-05-28T12:35:58Z</time>
      </trkpt>
      <trkpt lat="44.69347" lon="1.05302">
        <ele>233</ele>
        <time>2012-05-28T12:36:05Z</time>
      </trkpt>
      <trkpt lat="44.69368" lon="1.05326">
        <ele>226</ele>
        <time>2012-05-28T12:36:12Z</time>
      </trkpt>
      <trkpt lat="44.69396" lon="1.05336">
        <ele>219</ele>
        <time>2012-05-28T12:36:20Z</time>
      </trkpt>
      <trkpt lat="44.69417" lon="1.05341">
        <ele>216</ele>
        <time>2012-05-28T12:36:26Z</time>
      </trkpt>
      <trkpt lat="44.69427" lon="1.05341">
        <ele>215</ele>
        <time>2012-05-28T12:36:33Z</time>
      </trkpt>
      <trkpt lat="44.6945" lon="1.05341">
        <ele>218</ele>
        <time>2012-05-28T12:36:40Z</time>
      </trkpt>
      <trkpt lat="44.69473" lon="1.05341">
        <ele>221</ele>
        <time>2012-05-28T12:36:47Z</time>
      </trkpt>
      <trkpt lat="44.69503" lon="1.05331">
        <ele>224</ele>
        <time>2012-05-28T12:36:53Z</time>
      </trkpt>
      <trkpt lat="44.69512" lon="1.05318">
        <ele>225</ele>
        <time>2012-05-28T12:37:02Z</time>
      </trkpt>
      <trkpt lat="44.69526" lon="1.05306">
        <ele>226</ele>
        <time>2012-05-28T12:37:08Z</time>
      </trkpt>
      <trkpt lat="44.69547" lon="1.05281">
        <ele>229</ele>
        <time>2012-05-28T12:37:14Z</time>
      </trkpt>
      <trkpt lat="44.69567" lon="1.05272">
        <ele>231</ele>
        <time>2012-05-28T12:37:21Z</time>
      </trkpt>
      <trkpt lat="44.69586" lon="1.05262">
        <ele>231</ele>
        <time>2012-05-28T12:37:27Z</time>
      </trkpt>
      <trkpt lat="44.6961" lon="1.05244">
        <ele>231</ele>
        <time>2012-05-28T12:37:32Z</time>
      </trkpt>
      <trkpt lat="44.69618" lon="1.05247">
        <ele>231</ele>
        <time>2012-05-28T12:37:41Z</time>
      </trkpt>
      <trkpt lat="44.69624" lon="1.05257">
        <ele>231</ele>
        <time>2012-05-28T12:37:50Z</time>
      </trkpt>
      <trkpt lat="44.69628" lon="1.05265">
        <ele>231</ele>
        <time>2012-05-28T12:37:56Z</time>
      </trkpt>
      <trkpt lat="44.69635" lon="1.05278">
        <ele>232</ele>
        <time>2012-05-28T12:38:05Z</time>
      </trkpt>
      <trkpt lat="44.69631" lon="1.05297">
        <ele>236</ele>
        <time>2012-05-28T12:38:13Z</time>
      </trkpt>
      <trkpt lat="44.69624" lon="1.05311">
        <ele>239</ele>
        <time>2012-05-28T12:38:20Z</time>
      </trkpt>
      <trkpt lat="44.69619" lon="1.05317">
        <ele>241</ele>
        <time>2012-05-28T12:38:27Z</time>
      </trkpt>
      <trkpt lat="44.69609" lon="1.05331">
        <ele>244</ele>
        <time>2012-05-28T12:38:33Z</time>
      </trkpt>
      <trkpt lat="44.69598" lon="1.05348">
        <ele>246</ele>
        <time>2012-05-28T12:38:38Z</time>
      </trkpt>
      <trkpt lat="44.69595" lon="1.05353">
        <ele>246</ele>
        <time>2012-05-28T12:38:44Z</time>
      </trkpt>
      <trkpt lat="44.69581" lon="1.05378">
        <ele>246</ele>
        <time>2012-05-28T12:38:51Z</time>
      </trkpt>
      <trkpt lat="44.69573" lon="1.05391">
        <ele>246</ele>
        <time>2012-05-28T12:38:56Z</time>
      </trkpt>
      <trkpt lat="44.69562" lon="1.0541">
        <ele>246</ele>
        <time>2012-05-28T12:39:03Z</time>
      </trkpt>
      <trkpt lat="44.69559" lon="1.0542">
        <ele>246</ele>
        <time>2012-05-28T12:39:10Z</time>
      </trkpt>
      <trkpt lat="44.69547" lon="1.05441">
        <ele>246</ele>
        <time>2012-05-28T12:39:17Z</time>
      </trkpt>
      <trkpt lat="44.69519" lon="1.05465">
        <ele>246</ele>
        <time>2012-05-28T12:39:24Z</time>
      </trkpt>
      <trkpt lat="44.69481" lon="1.05481">
        <ele>246</ele>
        <time>2012-05-28T12:39:31Z</time>
      </trkpt>
      <trkpt lat="44.6947" lon="1.05486">
        <ele>246</ele>
        <time>2012-05-28T12:39:39Z</time>
      </trkpt>
      <trkpt lat="44.69456" lon="1.0549">
        <ele>246</ele>
        <time>2012-05-28T12:39:46Z</time>
      </trkpt>
      <trkpt lat="44.69435" lon="1.05498">
        <ele>246</ele>
        <time>2012-05-28T12:39:53Z</time>
      </trkpt>
      <trkpt lat="44.69429" lon="1.05501">
        <ele>246</ele>
        <time>2012-05-28T12:40:00Z</time>
      </trkpt>
      <trkpt lat="44.69413" lon="1.05506">
        <ele>247</ele>
        <time>2012-05-28T12:40:07Z</time>
      </trkpt>
      <trkpt lat="44.69394" lon="1.05521">
        <ele>249</ele>
        <time>2012-05-28T12:40:14Z</time>
      </trkpt>
      <trkpt lat="44.6937" lon="1.05554">
        <ele>252</ele>
        <time>2012-05-28T12:40:21Z</time>
      </trkpt>
      <trkpt lat="44.69362" lon="1.05582">
        <ele>255</ele>
        <time>2012-05-28T12:40:28Z</time>
      </trkpt>
      <trkpt lat="44.69368" lon="1.05591">
        <ele>255</ele>
        <time>2012-05-28T12:40:37Z</time>
      </trkpt>
      <trkpt lat="44.69391" lon="1.05591">
        <ele>255</ele>
        <time>2012-05-28T12:40:45Z</time>
      </trkpt>
      <trkpt lat="44.69416" lon="1.05593">
        <ele>255</ele>
        <time>2012-05-28T12:40:52Z</time>
      </trkpt>
      <trkpt lat="44.69449" lon="1.05596">
        <ele>255</ele>
        <time>2012-05-28T12:40:58Z</time>
      </trkpt>
      <trkpt lat="44.69483" lon="1.05603">
        <ele>255</ele>
        <time>2012-05-28T12:41:05Z</time>
      </trkpt>
      <trkpt lat="44.69477" lon="1.05629">
        <ele>255</ele>
        <time>2012-05-28T12:41:14Z</time>
      </trkpt>
      <trkpt lat="44.69461" lon="1.05657">
        <ele>255</ele>
        <time>2012-05-28T12:41:20Z</time>
      </trkpt>
      <trkpt lat="44.69446" lon="1.05694">
        <ele>255</ele>
        <time>2012-05-28T12:41:27Z</time>
      </trkpt>
      <trkpt lat="44.69421" lon="1.05736">
        <ele>255</ele>
        <time>2012-05-28T12:41:34Z</time>
      </trkpt>
      <trkpt lat="44.69434" lon="1.05778">
        <ele>255</ele>
        <time>2012-05-28T12:41:43Z</time>
      </trkpt>
      <trkpt lat="44.69459" lon="1.05817">
        <ele>255</ele>
        <time>2012-05-28T12:41:49Z</time>
      </trkpt>
      <trkpt lat="44.69503" lon="1.05883">
        <ele>255</ele>
        <time>2012-05-28T12:41:56Z</time>
      </trkpt>
      <trkpt lat="44.69536" lon="1.05967">
        <ele>251</ele>
        <time>2012-05-28T12:42:04Z</time>
      </trkpt>
      <trkpt lat="44.6956" lon="1.06043">
        <ele>245</ele>
        <time>2012-05-28T12:42:11Z</time>
      </trkpt>
      <trkpt lat="44.6958" lon="1.06098">
        <ele>239</ele>
        <time>2012-05-28T12:42:18Z</time>
      </trkpt>
      <trkpt lat="44.69588" lon="1.06115">
        <ele>231</ele>
        <time>2012-05-28T12:42:27Z</time>
      </trkpt>
      <trkpt lat="44.69603" lon="1.06081">
        <ele>227</ele>
        <time>2012-05-28T12:42:34Z</time>
      </trkpt>
      <trkpt lat="44.6962" lon="1.06087">
        <ele>221</ele>
        <time>2012-05-28T12:42:43Z</time>
      </trkpt>
      <trkpt lat="44.69633" lon="1.06136">
        <ele>218</ele>
        <time>2012-05-28T12:42:51Z</time>
      </trkpt>
      <trkpt lat="44.6966" lon="1.06216">
        <ele>214</ele>
        <time>2012-05-28T12:42:58Z</time>
      </trkpt>
      <trkpt lat="44.69677" lon="1.06272">
        <ele>211</ele>
        <time>2012-05-28T12:43:05Z</time>
      </trkpt>
      <trkpt lat="44.69659" lon="1.06315">
        <ele>207</ele>
        <time>2012-05-28T12:43:14Z</time>
      </trkpt>
      <trkpt lat="44.69633" lon="1.06363">
        <ele>204</ele>
        <time>2012-05-28T12:43:21Z</time>
      </trkpt>
      <trkpt lat="44.69604" lon="1.06416">
        <ele>201</ele>
        <time>2012-05-28T12:43:28Z</time>
      </trkpt>
      <trkpt lat="44.69561" lon="1.0651">
        <ele>198</ele>
        <time>2012-05-28T12:43:35Z</time>
      </trkpt>
      <trkpt lat="44.69543" lon="1.06577">
        <ele>196</ele>
        <time>2012-05-28T12:43:42Z</time>
      </trkpt>
      <trkpt lat="44.69528" lon="1.06633">
        <ele>194</ele>
        <time>2012-05-28T12:43:49Z</time>
      </trkpt>
      <trkpt lat="44.69531" lon="1.06667">
        <ele>203</ele>
        <time>2012-05-28T12:45:29Z</time>
      </trkpt>
      <trkpt lat="44.69538" lon="1.06685">
        <ele>203</ele>
        <time>2012-05-28T12:45:35Z</time>
      </trkpt>
      <trkpt lat="44.69538" lon="1.06697">
        <ele>203</ele>
        <time>2012-05-28T12:45:43Z</time>
      </trkpt>
      <trkpt lat="44.69538" lon="1.06695">
        <ele>205</ele>
        <time>2012-05-28T12:45:50Z</time>
      </trkpt>
      <trkpt lat="44.69539" lon="1.06714">
        <ele>206</ele>
        <time>2012-05-28T12:45:58Z</time>
      </trkpt>
      <trkpt lat="44.69544" lon="1.06745">
        <ele>206</ele>
        <time>2012-05-28T12:46:05Z</time>
      </trkpt>
      <trkpt lat="44.69548" lon="1.06768">
        <ele>206</ele>
        <time>2012-05-28T12:46:11Z</time>
      </trkpt>
      <trkpt lat="44.69551" lon="1.06792">
        <ele>206</ele>
        <time>2012-05-28T12:46:17Z</time>
      </trkpt>
      <trkpt lat="44.69552" lon="1.06799">
        <ele>206</ele>
        <time>2012-05-28T12:46:25Z</time>
      </trkpt>
      <trkpt lat="44.69551" lon="1.06808">
        <ele>206</ele>
        <time>2012-05-28T12:46:32Z</time>
      </trkpt>
      <trkpt lat="44.6955" lon="1.0683">
        <ele>206</ele>
        <time>2012-05-28T12:46:38Z</time>
      </trkpt>
      <trkpt lat="44.69553" lon="1.06852">
        <ele>206</ele>
        <time>2012-05-28T12:46:44Z</time>
      </trkpt>
      <trkpt lat="44.69556" lon="1.06872">
        <ele>206</ele>
        <time>2012-05-28T12:46:50Z</time>
      </trkpt>
      <trkpt lat="44.69559" lon="1.06899">
        <ele>206</ele>
        <time>2012-05-28T12:46:56Z</time>
      </trkpt>
      <trkpt lat="44.69563" lon="1.06936">
        <ele>206</ele>
        <time>2012-05-28T12:47:02Z</time>
      </trkpt>
      <trkpt lat="44.69564" lon="1.06972">
        <ele>206</ele>
        <time>2012-05-28T12:47:08Z</time>
      </trkpt>
      <trkpt lat="44.69572" lon="1.07013">
        <ele>205</ele>
        <time>2012-05-28T12:47:14Z</time>
      </trkpt>
      <trkpt lat="44.69581" lon="1.07043">
        <ele>202</ele>
        <time>2012-05-28T12:47:20Z</time>
      </trkpt>
      <trkpt lat="44.69594" lon="1.07075">
        <ele>201</ele>
        <time>2012-05-28T12:47:25Z</time>
      </trkpt>
      <trkpt lat="44.69623" lon="1.07097">
        <ele>201</ele>
        <time>2012-05-28T12:47:33Z</time>
      </trkpt>
      <trkpt lat="44.69649" lon="1.07111">
        <ele>201</ele>
        <time>2012-05-28T12:47:39Z</time>
      </trkpt>
      <trkpt lat="44.69672" lon="1.0713">
        <ele>200</ele>
        <time>2012-05-28T12:47:45Z</time>
      </trkpt>
      <trkpt lat="44.6969" lon="1.0715">
        <ele>200</ele>
        <time>2012-05-28T12:47:51Z</time>
      </trkpt>
      <trkpt lat="44.69703" lon="1.07172">
        <ele>200</ele>
        <time>2012-05-28T12:47:57Z</time>
      </trkpt>
      <trkpt lat="44.69705" lon="1.07203">
        <ele>203</ele>
        <time>2012-05-28T12:48:04Z</time>
      </trkpt>
      <trkpt lat="44.69718" lon="1.07217">
        <ele>204</ele>
        <time>2012-05-28T12:48:12Z</time>
      </trkpt>
      <trkpt lat="44.69713" lon="1.07234">
        <ele>204</ele>
        <time>2012-05-28T12:48:20Z</time>
      </trkpt>
      <trkpt lat="44.69706" lon="1.07248">
        <ele>204</ele>
        <time>2012-05-28T12:48:27Z</time>
      </trkpt>
      <trkpt lat="44.69702" lon="1.07264">
        <ele>204</ele>
        <time>2012-05-28T12:48:33Z</time>
      </trkpt>
      <trkpt lat="44.69699" lon="1.07277">
        <ele>204</ele>
        <time>2012-05-28T12:48:39Z</time>
      </trkpt>
      <trkpt lat="44.69696" lon="1.0729">
        <ele>204</ele>
        <time>2012-05-28T12:48:46Z</time>
      </trkpt>
      <trkpt lat="44.69691" lon="1.07304">
        <ele>205</ele>
        <time>2012-05-28T12:48:52Z</time>
      </trkpt>
      <trkpt lat="44.69688" lon="1.07314">
        <ele>206</ele>
        <time>2012-05-28T12:48:58Z</time>
      </trkpt>
      <trkpt lat="44.69683" lon="1.07326">
        <ele>207</ele>
        <time>2012-05-28T12:49:06Z</time>
      </trkpt>
      <trkpt lat="44.6968" lon="1.07335">
        <ele>210</ele>
        <time>2012-05-28T12:49:11Z</time>
      </trkpt>
      <trkpt lat="44.69679" lon="1.07345">
        <ele>214</ele>
        <time>2012-05-28T12:49:20Z</time>
      </trkpt>
      <trkpt lat="44.69678" lon="1.07356">
        <ele>216</ele>
        <time>2012-05-28T12:49:25Z</time>
      </trkpt>
      <trkpt lat="44.69672" lon="1.0737">
        <ele>221</ele>
        <time>2012-05-28T12:49:33Z</time>
      </trkpt>
      <trkpt lat="44.69669" lon="1.07374">
        <ele>224</ele>
        <time>2012-05-28T12:49:40Z</time>
      </trkpt>
      <trkpt lat="44.69662" lon="1.07382">
        <ele>230</ele>
        <time>2012-05-28T12:49:47Z</time>
      </trkpt>
      <trkpt lat="44.69657" lon="1.07392">
        <ele>237</ele>
        <time>2012-05-28T12:49:55Z</time>
      </trkpt>
      <trkpt lat="44.69651" lon="1.07403">
        <ele>243</ele>
        <time>2012-05-28T12:50:01Z</time>
      </trkpt>
      <trkpt lat="44.69645" lon="1.0742">
        <ele>253</ele>
        <time>2012-05-28T12:50:09Z</time>
      </trkpt>
      <trkpt lat="44.6964" lon="1.07428">
        <ele>257</ele>
        <time>2012-05-28T12:50:16Z</time>
      </trkpt>
      <trkpt lat="44.69634" lon="1.07437">
        <ele>260</ele>
        <time>2012-05-28T12:50:23Z</time>
      </trkpt>
      <trkpt lat="44.69624" lon="1.07449">
        <ele>262</ele>
        <time>2012-05-28T12:50:31Z</time>
      </trkpt>
      <trkpt lat="44.69618" lon="1.07456">
        <ele>263</ele>
        <time>2012-05-28T12:50:37Z</time>
      </trkpt>
      <trkpt lat="44.69608" lon="1.07478">
        <ele>264</ele>
        <time>2012-05-28T12:50:46Z</time>
      </trkpt>
      <trkpt lat="44.69593" lon="1.07507">
        <ele>263</ele>
        <time>2012-05-28T12:50:53Z</time>
      </trkpt>
      <trkpt lat="44.69585" lon="1.0752">
        <ele>261</ele>
        <time>2012-05-28T12:50:59Z</time>
      </trkpt>
      <trkpt lat="44.69572" lon="1.07536">
        <ele>259</ele>
        <time>2012-05-28T12:51:05Z</time>
      </trkpt>
      <trkpt lat="44.69549" lon="1.07545">
        <ele>258</ele>
        <time>2012-05-28T12:51:13Z</time>
      </trkpt>
      <trkpt lat="44.69528" lon="1.0756">
        <ele>256</ele>
        <time>2012-05-28T12:51:20Z</time>
      </trkpt>
      <trkpt lat="44.69495" lon="1.07579">
        <ele>255</ele>
        <time>2012-05-28T12:51:28Z</time>
      </trkpt>
      <trkpt lat="44.69488" lon="1.07589">
        <ele>255</ele>
        <time>2012-05-28T12:51:35Z</time>
      </trkpt>
      <trkpt lat="44.69478" lon="1.07605">
        <ele>255</ele>
        <time>2012-05-28T12:51:41Z</time>
      </trkpt>
      <trkpt lat="44.69467" lon="1.07617">
        <ele>257</ele>
        <time>2012-05-28T12:51:47Z</time>
      </trkpt>
      <trkpt lat="44.69458" lon="1.07635">
        <ele>257</ele>
        <time>2012-05-28T12:51:53Z</time>
      </trkpt>
      <trkpt lat="44.69446" lon="1.07654">
        <ele>260</ele>
        <time>2012-05-28T12:51:59Z</time>
      </trkpt>
      <trkpt lat="44.69437" lon="1.07671">
        <ele>263</ele>
        <time>2012-05-28T12:52:05Z</time>
      </trkpt>
      <trkpt lat="44.69428" lon="1.07685">
        <ele>267</ele>
        <time>2012-05-28T12:52:11Z</time>
      </trkpt>
      <trkpt lat="44.69417" lon="1.07701">
        <ele>270</ele>
        <time>2012-05-28T12:52:18Z</time>
      </trkpt>
      <trkpt lat="44.69414" lon="1.07727">
        <ele>273</ele>
        <time>2012-05-28T12:52:26Z</time>
      </trkpt>
      <trkpt lat="44.69424" lon="1.07747">
        <ele>271</ele>
        <time>2012-05-28T12:52:34Z</time>
      </trkpt>
      <trkpt lat="44.6942" lon="1.07778">
        <ele>268</ele>
        <time>2012-05-28T12:52:41Z</time>
      </trkpt>
      <trkpt lat="44.69417" lon="1.07796">
        <ele>268</ele>
        <time>2012-05-28T12:52:47Z</time>
      </trkpt>
      <trkpt lat="44.69411" lon="1.07818">
        <ele>269</ele>
        <time>2012-05-28T12:52:55Z</time>
      </trkpt>
      <trkpt lat="44.69402" lon="1.07849">
        <ele>273</ele>
        <time>2012-05-28T12:53:02Z</time>
      </trkpt>
      <trkpt lat="44.69399" lon="1.07859">
        <ele>275</ele>
        <time>2012-05-28T12:53:08Z</time>
      </trkpt>
      <trkpt lat="44.69395" lon="1.07879">
        <ele>278</ele>
        <time>2012-05-28T12:53:14Z</time>
      </trkpt>
      <trkpt lat="44.69389" lon="1.07903">
        <ele>278</ele>
        <time>2012-05-28T12:53:20Z</time>
      </trkpt>
      <trkpt lat="44.69383" lon="1.07921">
        <ele>278</ele>
        <time>2012-05-28T12:53:26Z</time>
      </trkpt>
      <trkpt lat="44.69374" lon="1.0794">
        <ele>278</ele>
        <time>2012-05-28T12:53:32Z</time>
      </trkpt>
      <trkpt lat="44.69358" lon="1.07972">
        <ele>279</ele>
        <time>2012-05-28T12:53:38Z</time>
      </trkpt>
      <trkpt lat="44.69352" lon="1.07993">
        <ele>281</ele>
        <time>2012-05-28T12:53:44Z</time>
      </trkpt>
      <trkpt lat="44.69342" lon="1.08019">
        <ele>282</ele>
        <time>2012-05-28T12:53:51Z</time>
      </trkpt>
      <trkpt lat="44.69337" lon="1.0803">
        <ele>282</ele>
        <time>2012-05-28T12:53:57Z</time>
      </trkpt>
      <trkpt lat="44.69328" lon="1.0805">
        <ele>283</ele>
        <time>2012-05-28T12:54:04Z</time>
      </trkpt>
      <trkpt lat="44.69317" lon="1.08067">
        <ele>286</ele>
        <time>2012-05-28T12:54:10Z</time>
      </trkpt>
      <trkpt lat="44.69305" lon="1.08086">
        <ele>289</ele>
        <time>2012-05-28T12:54:17Z</time>
      </trkpt>
      <trkpt lat="44.69298" lon="1.08108">
        <ele>292</ele>
        <time>2012-05-28T12:54:23Z</time>
      </trkpt>
      <trkpt lat="44.69289" lon="1.08131">
        <ele>295</ele>
        <time>2012-05-28T12:54:29Z</time>
      </trkpt>
      <trkpt lat="44.69282" lon="1.08161">
        <ele>295</ele>
        <time>2012-05-28T12:54:36Z</time>
      </trkpt>
      <trkpt lat="44.6927" lon="1.08198">
        <ele>292</ele>
        <time>2012-05-28T12:54:42Z</time>
      </trkpt>
      <trkpt lat="44.69264" lon="1.08209">
        <ele>290</ele>
        <time>2012-05-28T12:54:48Z</time>
      </trkpt>
      <trkpt lat="44.69254" lon="1.0824">
        <ele>284</ele>
        <time>2012-05-28T12:54:54Z</time>
      </trkpt>
      <trkpt lat="44.69246" lon="1.08261">
        <ele>278</ele>
        <time>2012-05-28T12:55:01Z</time>
      </trkpt>
      <trkpt lat="44.69241" lon="1.08261">
        <ele>275</ele>
        <time>2012-05-28T12:55:11Z</time>
      </trkpt>
      <trkpt lat="44.69241" lon="1.08263">
        <ele>275</ele>
        <time>2012-05-28T12:55:21Z</time>
      </trkpt>
      <trkpt lat="44.69238" lon="1.08264">
        <ele>275</ele>
        <time>2012-05-28T12:55:29Z</time>
      </trkpt>
      <trkpt lat="44.69236" lon="1.08262">
        <ele>275</ele>
        <time>2012-05-28T12:55:34Z</time>
      </trkpt>
      <trkpt lat="44.69238" lon="1.08263">
        <ele>277</ele>
        <time>2012-05-28T12:55:41Z</time>
      </trkpt>
      <trkpt lat="44.69238" lon="1.08259">
        <ele>278</ele>
        <time>2012-05-28T12:55:51Z</time>
      </trkpt>
      <trkpt lat="44.69233" lon="1.08254">
        <ele>281</ele>
        <time>2012-05-28T12:55:58Z</time>
      </trkpt>
      <trkpt lat="44.69221" lon="1.08238">
        <ele>282</ele>
        <time>2012-05-28T12:56:04Z</time>
      </trkpt>
      <trkpt lat="44.69204" lon="1.08222">
        <ele>283</ele>
        <time>2012-05-28T12:56:10Z</time>
      </trkpt>
      <trkpt lat="44.69181" lon="1.08209">
        <ele>285</ele>
        <time>2012-05-28T12:56:17Z</time>
      </trkpt>
      <trkpt lat="44.69158" lon="1.08188">
        <ele>286</ele>
        <time>2012-05-28T12:56:23Z</time>
      </trkpt>
      <trkpt lat="44.69154" lon="1.08156">
        <ele>286</ele>
        <time>2012-05-28T12:56:30Z</time>
      </trkpt>
      <trkpt lat="44.69155" lon="1.08115">
        <ele>286</ele>
        <time>2012-05-28T12:56:36Z</time>
      </trkpt>
      <trkpt lat="44.69152" lon="1.08067">
        <ele>283</ele>
        <time>2012-05-28T12:56:42Z</time>
      </trkpt>
      <trkpt lat="44.69142" lon="1.07984">
        <ele>281</ele>
        <time>2012-05-28T12:56:48Z</time>
      </trkpt>
      <trkpt lat="44.69138" lon="1.07954">
        <ele>280</ele>
        <time>2012-05-28T12:56:54Z</time>
      </trkpt>
      <trkpt lat="44.6914" lon="1.07902">
        <ele>279</ele>
        <time>2012-05-28T12:57:02Z</time>
      </trkpt>
      <trkpt lat="44.69136" lon="1.07901">
        <ele>278</ele>
        <time>2012-05-28T12:57:09Z</time>
      </trkpt>
      <trkpt lat="44.69133" lon="1.07942">
        <ele>277</ele>
        <time>2012-05-28T12:57:16Z</time>
      </trkpt>
      <trkpt lat="44.69133" lon="1.07958">
        <ele>277</ele>
        <time>2012-05-28T12:57:23Z</time>
      </trkpt>
      <trkpt lat="44.69135" lon="1.0798">
        <ele>277</ele>
        <time>2012-05-28T12:57:30Z</time>
      </trkpt>
      <trkpt lat="44.69137" lon="1.07975">
        <ele>277</ele>
        <time>2012-05-28T12:57:38Z</time>
      </trkpt>
      <trkpt lat="44.69134" lon="1.07931">
        <ele>277</ele>
        <time>2012-05-28T12:57:47Z</time>
      </trkpt>
      <trkpt lat="44.6914" lon="1.07878">
        <ele>276</ele>
        <time>2012-05-28T12:57:53Z</time>
      </trkpt>
      <trkpt lat="44.69128" lon="1.07872">
        <ele>273</ele>
        <time>2012-05-28T12:58:00Z</time>
      </trkpt>
      <trkpt lat="44.6912" lon="1.07868">
        <ele>273</ele>
        <time>2012-05-28T12:58:05Z</time>
      </trkpt>
      <trkpt lat="44.69116" lon="1.0786">
        <ele>273</ele>
        <time>2012-05-28T12:58:12Z</time>
      </trkpt>
      <trkpt lat="44.69109" lon="1.0784">
        <ele>273</ele>
        <time>2012-05-28T12:58:19Z</time>
      </trkpt>
      <trkpt lat="44.69102" lon="1.07819">
        <ele>275</ele>
        <time>2012-05-28T12:58:25Z</time>
      </trkpt>
      <trkpt lat="44.69094" lon="1.07792">
        <ele>275</ele>
        <time>2012-05-28T12:58:31Z</time>
      </trkpt>
      <trkpt lat="44.69081" lon="1.07747">
        <ele>275</ele>
        <time>2012-05-28T12:58:37Z</time>
      </trkpt>
      <trkpt lat="44.69073" lon="1.07737">
        <ele>275</ele>
        <time>2012-05-28T12:58:44Z</time>
      </trkpt>
      <trkpt lat="44.69057" lon="1.07708">
        <ele>275</ele>
        <time>2012-05-28T12:58:51Z</time>
      </trkpt>
      <trkpt lat="44.69043" lon="1.07685">
        <ele>274</ele>
        <time>2012-05-28T12:58:57Z</time>
      </trkpt>
      <trkpt lat="44.69014" lon="1.07633">
        <ele>274</ele>
        <time>2012-05-28T12:59:03Z</time>
      </trkpt>
      <trkpt lat="44.69004" lon="1.07618">
        <ele>274</ele>
        <time>2012-05-28T12:59:09Z</time>
      </trkpt>
      <trkpt lat="44.68982" lon="1.0758">
        <ele>277</ele>
        <time>2012-05-28T12:59:16Z</time>
      </trkpt>
      <trkpt lat="44.68966" lon="1.07536">
        <ele>280</ele>
        <time>2012-05-28T12:59:23Z</time>
      </trkpt>
      <trkpt lat="44.68957" lon="1.07508">
        <ele>280</ele>
        <time>2012-05-28T12:59:32Z</time>
      </trkpt>
      <trkpt lat="44.68935" lon="1.07507">
        <ele>280</ele>
        <time>2012-05-28T12:59:39Z</time>
      </trkpt>
      <trkpt lat="44.68886" lon="1.07547">
        <ele>277</ele>
        <time>2012-05-28T12:59:45Z</time>
      </trkpt>
      <trkpt lat="44.68845" lon="1.07565">
        <ele>272</ele>
        <time>2012-05-28T12:59:51Z</time>
      </trkpt>
      <trkpt lat="44.68812" lon="1.07623">
        <ele>264</ele>
        <time>2012-05-28T12:59:58Z</time>
      </trkpt>
      <trkpt lat="44.6879" lon="1.07686">
        <ele>260</ele>
        <time>2012-05-28T13:00:05Z</time>
      </trkpt>
      <trkpt lat="44.6878" lon="1.07714">
        <ele>257</ele>
        <time>2012-05-28T13:00:11Z</time>
      </trkpt>
      <trkpt lat="44.68743" lon="1.07751">
        <ele>249</ele>
        <time>2012-05-28T13:00:20Z</time>
      </trkpt>
      <trkpt lat="44.68683" lon="1.07785">
        <ele>240</ele>
        <time>2012-05-28T13:00:27Z</time>
      </trkpt>
      <trkpt lat="44.68636" lon="1.07852">
        <ele>235</ele>
        <time>2012-05-28T13:00:33Z</time>
      </trkpt>
      <trkpt lat="44.68632" lon="1.07856">
        <ele>234</ele>
        <time>2012-05-28T13:00:40Z</time>
      </trkpt>
      <trkpt lat="44.68627" lon="1.07838">
        <ele>236</ele>
        <time>2012-05-28T13:00:47Z</time>
      </trkpt>
      <trkpt lat="44.68591" lon="1.07772">
        <ele>238</ele>
        <time>2012-05-28T13:00:54Z</time>
      </trkpt>
      <trkpt lat="44.68575" lon="1.07755">
        <ele>239</ele>
        <time>2012-05-28T13:01:00Z</time>
      </trkpt>
      <trkpt lat="44.68535" lon="1.07707">
        <ele>239</ele>
        <time>2012-05-28T13:01:07Z</time>
      </trkpt>
      <trkpt lat="44.68486" lon="1.07629">
        <ele>236</ele>
        <time>2012-05-28T13:01:13Z</time>
      </trkpt>
      <trkpt lat="44.68469" lon="1.07592">
        <ele>233</ele>
        <time>2012-05-28T13:01:20Z</time>
      </trkpt>
      <trkpt lat="44.68449" lon="1.075">
        <ele>227</ele>
        <time>2012-05-28T13:01:26Z</time>
      </trkpt>
      <trkpt lat="44.68446" lon="1.07463">
        <ele>223</ele>
        <time>2012-05-28T13:01:32Z</time>
      </trkpt>
      <trkpt lat="44.68438" lon="1.07394">
        <ele>218</ele>
        <time>2012-05-28T13:01:39Z</time>
      </trkpt>
      <trkpt lat="44.68428" lon="1.0733">
        <ele>214</ele>
        <time>2012-05-28T13:01:45Z</time>
      </trkpt>
      <trkpt lat="44.68437" lon="1.07265">
        <ele>209</ele>
        <time>2012-05-28T13:01:53Z</time>
      </trkpt>
      <trkpt lat="44.68436" lon="1.07184">
        <ele>205</ele>
        <time>2012-05-28T13:02:00Z</time>
      </trkpt>
      <trkpt lat="44.68419" lon="1.07099">
        <ele>204</ele>
        <time>2012-05-28T13:02:06Z</time>
      </trkpt>
      <trkpt lat="44.6841" lon="1.07061">
        <ele>204</ele>
        <time>2012-05-28T13:02:13Z</time>
      </trkpt>
      <trkpt lat="44.68398" lon="1.07011">
        <ele>204</ele>
        <time>2012-05-28T13:02:19Z</time>
      </trkpt>
      <trkpt lat="44.68391" lon="1.06946">
        <ele>204</ele>
        <time>2012-05-28T13:02:26Z</time>
      </trkpt>
      <trkpt lat="44.68385" lon="1.06889">
        <ele>204</ele>
        <time>2012-05-28T13:02:32Z</time>
      </trkpt>
      <trkpt lat="44.68385" lon="1.0686">
        <ele>203</ele>
        <time>2012-05-28T13:02:39Z</time>
      </trkpt>
      <trkpt lat="44.68367" lon="1.06861">
        <ele>202</ele>
        <time>2012-05-28T13:02:46Z</time>
      </trkpt>
      <trkpt lat="44.68338" lon="1.06865">
        <ele>202</ele>
        <time>2012-05-28T13:02:53Z</time>
      </trkpt>
      <trkpt lat="44.68314" lon="1.06859">
        <ele>202</ele>
        <time>2012-05-28T13:02:59Z</time>
      </trkpt>
      <trkpt lat="44.68305" lon="1.0681">
        <ele>198</ele>
        <time>2012-05-28T13:03:07Z</time>
      </trkpt>
      <trkpt lat="44.68299" lon="1.06769">
        <ele>195</ele>
        <time>2012-05-28T13:03:13Z</time>
      </trkpt>
      <trkpt lat="44.68297" lon="1.06726">
        <ele>192</ele>
        <time>2012-05-28T13:03:20Z</time>
      </trkpt>
      <trkpt lat="44.68312" lon="1.06706">
        <ele>190</ele>
        <time>2012-05-28T13:03:27Z</time>
      </trkpt>
      <trkpt lat="44.68337" lon="1.06703">
        <ele>186</ele>
        <time>2012-05-28T13:03:34Z</time>
      </trkpt>
      <trkpt lat="44.68362" lon="1.06721">
        <ele>184</ele>
        <time>2012-05-28T13:03:43Z</time>
      </trkpt>
      <trkpt lat="44.68385" lon="1.06733">
        <ele>184</ele>
        <time>2012-05-28T13:03:50Z</time>
      </trkpt>
      <trkpt lat="44.6841" lon="1.06721">
        <ele>183</ele>
        <time>2012-05-28T13:03:58Z</time>
      </trkpt>
      <trkpt lat="44.68425" lon="1.06705">
        <ele>183</ele>
        <time>2012-05-28T13:04:04Z</time>
      </trkpt>
      <trkpt lat="44.68435" lon="1.067">
        <ele>183</ele>
        <time>2012-05-28T13:04:09Z</time>
      </trkpt>
      <trkpt lat="44.68445" lon="1.06697">
        <ele>185</ele>
        <time>2012-05-28T13:04:15Z</time>
      </trkpt>
      <trkpt lat="44.68449" lon="1.06696">
        <ele>187</ele>
        <time>2012-05-28T13:04:21Z</time>
      </trkpt>
      <trkpt lat="44.68463" lon="1.06685">
        <ele>189</ele>
        <time>2012-05-28T13:04:26Z</time>
      </trkpt>
      <trkpt lat="44.68475" lon="1.06673">
        <ele>192</ele>
        <time>2012-05-28T13:04:32Z</time>
      </trkpt>
      <trkpt lat="44.68485" lon="1.06665">
        <ele>194</ele>
        <time>2012-05-28T13:04:38Z</time>
      </trkpt>
      <trkpt lat="44.68498" lon="1.06659">
        <ele>196</ele>
        <time>2012-05-28T13:04:45Z</time>
      </trkpt>
      <trkpt lat="44.68506" lon="1.06655">
        <ele>199</ele>
        <time>2012-05-28T13:04:52Z</time>
      </trkpt>
      <trkpt lat="44.68518" lon="1.06646">
        <ele>202</ele>
        <time>2012-05-28T13:04:58Z</time>
      </trkpt>
      <trkpt lat="44.6854" lon="1.06619">
        <ele>206</ele>
        <time>2012-05-28T13:05:06Z</time>
      </trkpt>
      <trkpt lat="44.68557" lon="1.06578">
        <ele>206</ele>
        <time>2012-05-28T13:05:13Z</time>
      </trkpt>
      <trkpt lat="44.68573" lon="1.0654">
        <ele>206</ele>
        <time>2012-05-28T13:05:19Z</time>
      </trkpt>
      <trkpt lat="44.68623" lon="1.06497">
        <ele>206</ele>
        <time>2012-05-28T13:05:27Z</time>
      </trkpt>
      <trkpt lat="44.68634" lon="1.06489">
        <ele>206</ele>
        <time>2012-05-28T13:05:33Z</time>
      </trkpt>
      <trkpt lat="44.68669" lon="1.0647">
        <ele>202</ele>
        <time>2012-05-28T13:05:41Z</time>
      </trkpt>
      <trkpt lat="44.68679" lon="1.06466">
        <ele>200</ele>
        <time>2012-05-28T13:05:47Z</time>
      </trkpt>
      <trkpt lat="44.68715" lon="1.0646">
        <ele>198</ele>
        <time>2012-05-28T13:05:56Z</time>
      </trkpt>
      <trkpt lat="44.68746" lon="1.06476">
        <ele>195</ele>
        <time>2012-05-28T13:06:03Z</time>
      </trkpt>
      <trkpt lat="44.68756" lon="1.06489">
        <ele>195</ele>
        <time>2012-05-28T13:06:10Z</time>
      </trkpt>
      <trkpt lat="44.6877" lon="1.06513">
        <ele>195</ele>
        <time>2012-05-28T13:06:16Z</time>
      </trkpt>
      <trkpt lat="44.68803" lon="1.06526">
        <ele>195</ele>
        <time>2012-05-28T13:06:25Z</time>
      </trkpt>
      <trkpt lat="44.68827" lon="1.06522">
        <ele>195</ele>
        <time>2012-05-28T13:06:31Z</time>
      </trkpt>
      <trkpt lat="44.68882" lon="1.06525">
        <ele>195</ele>
        <time>2012-05-28T13:06:38Z</time>
      </trkpt>
      <trkpt lat="44.68898" lon="1.06524">
        <ele>195</ele>
        <time>2012-05-28T13:06:45Z</time>
      </trkpt>
      <trkpt lat="44.68914" lon="1.06527">
        <ele>195</ele>
        <time>2012-05-28T13:07:03Z</time>
      </trkpt>
      <trkpt lat="44.68914" lon="1.06528">
        <ele>195</ele>
        <time>2012-05-28T13:07:08Z</time>
      </trkpt>
      <trkpt lat="44.68916" lon="1.0653">
        <ele>195</ele>
        <time>2012-05-28T13:07:16Z</time>
      </trkpt>
      <trkpt lat="44.68916" lon="1.06531">
        <ele>195</ele>
        <time>2012-05-28T13:07:27Z</time>
      </trkpt>
      <trkpt lat="44.68917" lon="1.06523">
        <ele>195</ele>
        <time>2012-05-28T13:07:33Z</time>
      </trkpt>
      <trkpt lat="44.68914" lon="1.06506">
        <ele>194</ele>
        <time>2012-05-28T13:07:40Z</time>
      </trkpt>
      <trkpt lat="44.68904" lon="1.06452">
        <ele>193</ele>
        <time>2012-05-28T13:07:47Z</time>
      </trkpt>
      <trkpt lat="44.68903" lon="1.06431">
        <ele>192</ele>
        <time>2012-05-28T13:07:54Z</time>
      </trkpt>
      <trkpt lat="44.68901" lon="1.06397">
        <ele>190</ele>
        <time>2012-05-28T13:08:01Z</time>
      </trkpt>
      <trkpt lat="44.68908" lon="1.06375">
        <ele>189</ele>
        <time>2012-05-28T13:08:12Z</time>
      </trkpt>
      <trkpt lat="44.68909" lon="1.06376">
        <ele>189</ele>
        <time>2012-05-28T13:08:18Z</time>
      </trkpt>
      <trkpt lat="44.689" lon="1.06358">
        <ele>198</ele>
        <time>2012-05-28T13:15:43Z</time>
      </trkpt>
      <trkpt lat="44.68904" lon="1.06297">
        <ele>198</ele>
        <time>2012-05-28T13:15:51Z</time>
      </trkpt>
      <trkpt lat="44.68907" lon="1.06258">
        <ele>197</ele>
        <time>2012-05-28T13:15:56Z</time>
      </trkpt>
      <trkpt lat="44.68908" lon="1.06208">
        <ele>194</ele>
        <time>2012-05-28T13:16:03Z</time>
      </trkpt>
      <trkpt lat="44.68904" lon="1.06157">
        <ele>191</ele>
        <time>2012-05-28T13:16:10Z</time>
      </trkpt>
      <trkpt lat="44.68893" lon="1.06106">
        <ele>189</ele>
        <time>2012-05-28T13:16:17Z</time>
      </trkpt>
      <trkpt lat="44.68878" lon="1.06058">
        <ele>190</ele>
        <time>2012-05-28T13:16:23Z</time>
      </trkpt>
      <trkpt lat="44.68874" lon="1.06026">
        <ele>191</ele>
        <time>2012-05-28T13:16:28Z</time>
      </trkpt>
      <trkpt lat="44.68888" lon="1.05969">
        <ele>196</ele>
        <time>2012-05-28T13:16:36Z</time>
      </trkpt>
      <trkpt lat="44.68911" lon="1.05928">
        <ele>200</ele>
        <time>2012-05-28T13:16:43Z</time>
      </trkpt>
      <trkpt lat="44.68922" lon="1.05887">
        <ele>204</ele>
        <time>2012-05-28T13:16:53Z</time>
      </trkpt>
      <trkpt lat="44.68919" lon="1.05861">
        <ele>204</ele>
        <time>2012-05-28T13:17:00Z</time>
      </trkpt>
      <trkpt lat="44.68913" lon="1.05828">
        <ele>208</ele>
        <time>2012-05-28T13:17:09Z</time>
      </trkpt>
      <trkpt lat="44.68912" lon="1.0582">
        <ele>210</ele>
        <time>2012-05-28T13:17:15Z</time>
      </trkpt>
      <trkpt lat="44.68907" lon="1.05799">
        <ele>214</ele>
        <time>2012-05-28T13:17:23Z</time>
      </trkpt>
      <trkpt lat="44.68906" lon="1.05779">
        <ele>217</ele>
        <time>2012-05-28T13:17:30Z</time>
      </trkpt>
      <trkpt lat="44.68898" lon="1.05751">
        <ele>224</ele>
        <time>2012-05-28T13:17:38Z</time>
      </trkpt>
      <trkpt lat="44.68891" lon="1.05732">
        <ele>229</ele>
        <time>2012-05-28T13:17:45Z</time>
      </trkpt>
      <trkpt lat="44.68885" lon="1.05709">
        <ele>234</ele>
        <time>2012-05-28T13:17:56Z</time>
      </trkpt>
      <trkpt lat="44.68863" lon="1.05689">
        <ele>236</ele>
        <time>2012-05-28T13:18:02Z</time>
      </trkpt>
      <trkpt lat="44.68856" lon="1.05679">
        <ele>237</ele>
        <time>2012-05-28T13:18:09Z</time>
      </trkpt>
      <trkpt lat="44.68848" lon="1.05655">
        <ele>237</ele>
        <time>2012-05-28T13:18:16Z</time>
      </trkpt>
      <trkpt lat="44.68845" lon="1.05649">
        <ele>237</ele>
        <time>2012-05-28T13:18:22Z</time>
      </trkpt>
      <trkpt lat="44.68834" lon="1.05632">
        <ele>237</ele>
        <time>2012-05-28T13:18:30Z</time>
      </trkpt>
      <trkpt lat="44.68821" lon="1.05613">
        <ele>240</ele>
        <time>2012-05-28T13:18:37Z</time>
      </trkpt>
      <trkpt lat="44.68805" lon="1.05601">
        <ele>242</ele>
        <time>2012-05-28T13:18:44Z</time>
      </trkpt>
      <trkpt lat="44.68785" lon="1.05588">
        <ele>242</ele>
        <time>2012-05-28T13:18:52Z</time>
      </trkpt>
      <trkpt lat="44.68764" lon="1.05563">
        <ele>242</ele>
        <time>2012-05-28T13:19:00Z</time>
      </trkpt>
      <trkpt lat="44.68756" lon="1.05532">
        <ele>242</ele>
        <time>2012-05-28T13:19:09Z</time>
      </trkpt>
      <trkpt lat="44.68753" lon="1.05509">
        <ele>242</ele>
        <time>2012-05-28T13:19:16Z</time>
      </trkpt>
      <trkpt lat="44.68747" lon="1.05478">
        <ele>242</ele>
        <time>2012-05-28T13:19:23Z</time>
      </trkpt>
      <trkpt lat="44.68744" lon="1.05458">
        <ele>242</ele>
        <time>2012-05-28T13:19:30Z</time>
      </trkpt>
      <trkpt lat="44.68742" lon="1.0545">
        <ele>242</ele>
        <time>2012-05-28T13:19:37Z</time>
      </trkpt>
      <trkpt lat="44.68738" lon="1.0543">
        <ele>242</ele>
        <time>2012-05-28T13:19:44Z</time>
      </trkpt>
      <trkpt lat="44.68735" lon="1.0541">
        <ele>245</ele>
        <time>2012-05-28T13:19:51Z</time>
      </trkpt>
      <trkpt lat="44.68731" lon="1.05388">
        <ele>248</ele>
        <time>2012-05-28T13:19:59Z</time>
      </trkpt>
      <trkpt lat="44.68715" lon="1.05366">
        <ele>253</ele>
        <time>2012-05-28T13:20:07Z</time>
      </trkpt>
      <trkpt lat="44.68696" lon="1.05352">
        <ele>256</ele>
        <time>2012-05-28T13:20:14Z</time>
      </trkpt>
      <trkpt lat="44.68681" lon="1.0533">
        <ele>259</ele>
        <time>2012-05-28T13:20:21Z</time>
      </trkpt>
      <trkpt lat="44.68655" lon="1.05292">
        <ele>259</ele>
        <time>2012-05-28T13:20:28Z</time>
      </trkpt>
      <trkpt lat="44.68651" lon="1.05281">
        <ele>257</ele>
        <time>2012-05-28T13:20:35Z</time>
      </trkpt>
      <trkpt lat="44.68635" lon="1.05252">
        <ele>254</ele>
        <time>2012-05-28T13:20:42Z</time>
      </trkpt>
      <trkpt lat="44.68618" lon="1.05232">
        <ele>251</ele>
        <time>2012-05-28T13:20:49Z</time>
      </trkpt>
      <trkpt lat="44.68603" lon="1.05207">
        <ele>248</ele>
        <time>2012-05-28T13:20:57Z</time>
      </trkpt>
      <trkpt lat="44.68587" lon="1.05182">
        <ele>248</ele>
        <time>2012-05-28T13:21:02Z</time>
      </trkpt>
      <trkpt lat="44.68578" lon="1.05164">
        <ele>250</ele>
        <time>2012-05-28T13:21:08Z</time>
      </trkpt>
      <trkpt lat="44.68571" lon="1.0516">
        <ele>253</ele>
        <time>2012-05-28T13:21:14Z</time>
      </trkpt>
      <trkpt lat="44.68568" lon="1.05161">
        <ele>254</ele>
        <time>2012-05-28T13:21:25Z</time>
      </trkpt>
      <trkpt lat="44.68568" lon="1.05155">
        <ele>254</ele>
        <time>2012-05-28T13:21:31Z</time>
      </trkpt>
      <trkpt lat="44.68568" lon="1.05156">
        <ele>260</ele>
        <time>2012-05-28T13:21:40Z</time>
      </trkpt>
      <trkpt lat="44.68566" lon="1.05159">
        <ele>264</ele>
        <time>2012-05-28T13:21:48Z</time>
      </trkpt>
      <trkpt lat="44.68572" lon="1.05157">
        <ele>269</ele>
        <time>2012-05-28T13:21:56Z</time>
      </trkpt>
      <trkpt lat="44.68573" lon="1.05157">
        <ele>272</ele>
        <time>2012-05-28T13:22:03Z</time>
      </trkpt>
      <trkpt lat="44.68574" lon="1.05158">
        <ele>275</ele>
        <time>2012-05-28T13:22:12Z</time>
      </trkpt>
      <trkpt lat="44.68574" lon="1.0516">
        <ele>275</ele>
        <time>2012-05-28T13:22:20Z</time>
      </trkpt>
      <trkpt lat="44.68574" lon="1.05162">
        <ele>276</ele>
        <time>2012-05-28T13:22:27Z</time>
      </trkpt>
      <trkpt lat="44.68576" lon="1.05158">
        <ele>278</ele>
        <time>2012-05-28T13:22:41Z</time>
      </trkpt>
      <trkpt lat="44.68572" lon="1.0516">
        <ele>278</ele>
        <time>2012-05-28T13:22:49Z</time>
      </trkpt>
      <trkpt lat="44.68573" lon="1.0516">
        <ele>273</ele>
        <time>2012-05-28T13:22:57Z</time>
      </trkpt>
      <trkpt lat="44.68577" lon="1.05159">
        <ele>270</ele>
        <time>2012-05-28T13:23:04Z</time>
      </trkpt>
      <trkpt lat="44.68575" lon="1.05162">
        <ele>270</ele>
        <time>2012-05-28T13:23:11Z</time>
      </trkpt>
      <trkpt lat="44.68572" lon="1.05165">
        <ele>268</ele>
        <time>2012-05-28T13:23:19Z</time>
      </trkpt>
      <trkpt lat="44.68572" lon="1.05168">
        <ele>264</ele>
        <time>2012-05-28T13:23:26Z</time>
      </trkpt>
      <trkpt lat="44.68572" lon="1.05166">
        <ele>259</ele>
        <time>2012-05-28T13:23:35Z</time>
      </trkpt>
      <trkpt lat="44.68568" lon="1.05163">
        <ele>258</ele>
        <time>2012-05-28T13:23:41Z</time>
      </trkpt>
      <trkpt lat="44.68557" lon="1.05148">
        <ele>258</ele>
        <time>2012-05-28T13:23:46Z</time>
      </trkpt>
      <trkpt lat="44.68538" lon="1.05105">
        <ele>258</ele>
        <time>2012-05-28T13:23:54Z</time>
      </trkpt>
      <trkpt lat="44.68529" lon="1.05088">
        <ele>258</ele>
        <time>2012-05-28T13:23:59Z</time>
      </trkpt>
      <trkpt lat="44.68509" lon="1.05045">
        <ele>258</ele>
        <time>2012-05-28T13:24:05Z</time>
      </trkpt>
      <trkpt lat="44.68491" lon="1.04997">
        <ele>258</ele>
        <time>2012-05-28T13:24:11Z</time>
      </trkpt>
      <trkpt lat="44.6849" lon="1.04934">
        <ele>256</ele>
        <time>2012-05-28T13:24:18Z</time>
      </trkpt>
      <trkpt lat="44.685" lon="1.04899">
        <ele>253</ele>
        <time>2012-05-28T13:24:25Z</time>
      </trkpt>
      <trkpt lat="44.6851" lon="1.0486">
        <ele>250</ele>
        <time>2012-05-28T13:24:31Z</time>
      </trkpt>
      <trkpt lat="44.68497" lon="1.04812">
        <ele>246</ele>
        <time>2012-05-28T13:24:38Z</time>
      </trkpt>
      <trkpt lat="44.68491" lon="1.04774">
        <ele>243</ele>
        <time>2012-05-28T13:24:43Z</time>
      </trkpt>
      <trkpt lat="44.68492" lon="1.04744">
        <ele>243</ele>
        <time>2012-05-28T13:24:50Z</time>
      </trkpt>
      <trkpt lat="44.68502" lon="1.04713">
        <ele>243</ele>
        <time>2012-05-28T13:24:56Z</time>
      </trkpt>
      <trkpt lat="44.68504" lon="1.0469">
        <ele>248</ele>
        <time>2012-05-28T13:25:05Z</time>
      </trkpt>
      <trkpt lat="44.68505" lon="1.04676">
        <ele>252</ele>
        <time>2012-05-28T13:25:12Z</time>
      </trkpt>
      <trkpt lat="44.68506" lon="1.04663">
        <ele>255</ele>
        <time>2012-05-28T13:25:18Z</time>
      </trkpt>
      <trkpt lat="44.68511" lon="1.04645">
        <ele>259</ele>
        <time>2012-05-28T13:25:25Z</time>
      </trkpt>
      <trkpt lat="44.68512" lon="1.04631">
        <ele>260</ele>
        <time>2012-05-28T13:25:33Z</time>
      </trkpt>
      <trkpt lat="44.68514" lon="1.04613">
        <ele>260</ele>
        <time>2012-05-28T13:25:39Z</time>
      </trkpt>
      <trkpt lat="44.68521" lon="1.04575">
        <ele>260</ele>
        <time>2012-05-28T13:25:45Z</time>
      </trkpt>
      <trkpt lat="44.68534" lon="1.04532">
        <ele>260</ele>
        <time>2012-05-28T13:25:51Z</time>
      </trkpt>
      <trkpt lat="44.68525" lon="1.04494">
        <ele>260</ele>
        <time>2012-05-28T13:25:59Z</time>
      </trkpt>
      <trkpt lat="44.68522" lon="1.0447">
        <ele>260</ele>
        <time>2012-05-28T13:26:05Z</time>
      </trkpt>
      <trkpt lat="44.6852" lon="1.0444">
        <ele>257</ele>
        <time>2012-05-28T13:26:10Z</time>
      </trkpt>
      <trkpt lat="44.68523" lon="1.04413">
        <ele>252</ele>
        <time>2012-05-28T13:26:16Z</time>
      </trkpt>
      <trkpt lat="44.68528" lon="1.04382">
        <ele>248</ele>
        <time>2012-05-28T13:26:22Z</time>
      </trkpt>
      <trkpt lat="44.68532" lon="1.0435">
        <ele>245</ele>
        <time>2012-05-28T13:26:28Z</time>
      </trkpt>
      <trkpt lat="44.68535" lon="1.04321">
        <ele>245</ele>
        <time>2012-05-28T13:26:34Z</time>
      </trkpt>
      <trkpt lat="44.6854" lon="1.04293">
        <ele>245</ele>
        <time>2012-05-28T13:26:40Z</time>
      </trkpt>
      <trkpt lat="44.68547" lon="1.04264">
        <ele>245</ele>
        <time>2012-05-28T13:26:46Z</time>
      </trkpt>
      <trkpt lat="44.68554" lon="1.04235">
        <ele>246</ele>
        <time>2012-05-28T13:26:52Z</time>
      </trkpt>
      <trkpt lat="44.68562" lon="1.04213">
        <ele>249</ele>
        <time>2012-05-28T13:26:58Z</time>
      </trkpt>
      <trkpt lat="44.68569" lon="1.04186">
        <ele>251</ele>
        <time>2012-05-28T13:27:04Z</time>
      </trkpt>
      <trkpt lat="44.68577" lon="1.04157">
        <ele>252</ele>
        <time>2012-05-28T13:27:10Z</time>
      </trkpt>
      <trkpt lat="44.68584" lon="1.04125">
        <ele>254</ele>
        <time>2012-05-28T13:27:16Z</time>
      </trkpt>
      <trkpt lat="44.68588" lon="1.04088">
        <ele>256</ele>
        <time>2012-05-28T13:27:22Z</time>
      </trkpt>
      <trkpt lat="44.68586" lon="1.04058">
        <ele>256</ele>
        <time>2012-05-28T13:27:28Z</time>
      </trkpt>
      <trkpt lat="44.68581" lon="1.0403">
        <ele>256</ele>
        <time>2012-05-28T13:27:34Z</time>
      </trkpt>
      <trkpt lat="44.68578" lon="1.04001">
        <ele>259</ele>
        <time>2012-05-28T13:27:40Z</time>
      </trkpt>
      <trkpt lat="44.68582" lon="1.03971">
        <ele>262</ele>
        <time>2012-05-28T13:27:48Z</time>
      </trkpt>
      <trkpt lat="44.68604" lon="1.03928">
        <ele>270</ele>
        <time>2012-05-28T13:27:54Z</time>
      </trkpt>
      <trkpt lat="44.6861" lon="1.03901">
        <ele>274</ele>
        <time>2012-05-28T13:28:02Z</time>
      </trkpt>
      <trkpt lat="44.68593" lon="1.03898">
        <ele>276</ele>
        <time>2012-05-28T13:28:09Z</time>
      </trkpt>
      <trkpt lat="44.68572" lon="1.03897">
        <ele>275</ele>
        <time>2012-05-28T13:28:15Z</time>
      </trkpt>
      <trkpt lat="44.68552" lon="1.03894">
        <ele>272</ele>
        <time>2012-05-28T13:28:21Z</time>
      </trkpt>
      <trkpt lat="44.68534" lon="1.03895">
        <ele>270</ele>
        <time>2012-05-28T13:28:27Z</time>
      </trkpt>
      <trkpt lat="44.68512" lon="1.03898">
        <ele>270</ele>
        <time>2012-05-28T13:28:33Z</time>
      </trkpt>
      <trkpt lat="44.68489" lon="1.03899">
        <ele>270</ele>
        <time>2012-05-28T13:28:39Z</time>
      </trkpt>
      <trkpt lat="44.68473" lon="1.03897">
        <ele>270</ele>
        <time>2012-05-28T13:28:45Z</time>
      </trkpt>
      <trkpt lat="44.68459" lon="1.03893">
        <ele>270</ele>
        <time>2012-05-28T13:28:51Z</time>
      </trkpt>
      <trkpt lat="44.68441" lon="1.03892">
        <ele>273</ele>
        <time>2012-05-28T13:28:57Z</time>
      </trkpt>
      <trkpt lat="44.6842" lon="1.0389">
        <ele>276</ele>
        <time>2012-05-28T13:29:03Z</time>
      </trkpt>
      <trkpt lat="44.684" lon="1.03886">
        <ele>276</ele>
        <time>2012-05-28T13:29:09Z</time>
      </trkpt>
      <trkpt lat="44.68379" lon="1.03884">
        <ele>276</ele>
        <time>2012-05-28T13:29:15Z</time>
      </trkpt>
      <trkpt lat="44.68354" lon="1.03876">
        <ele>276</ele>
        <time>2012-05-28T13:29:21Z</time>
      </trkpt>
      <trkpt lat="44.68326" lon="1.03865">
        <ele>276</ele>
        <time>2012-05-28T13:29:27Z</time>
      </trkpt>
      <trkpt lat="44.68298" lon="1.03869">
        <ele>276</ele>
        <time>2012-05-28T13:29:34Z</time>
      </trkpt>
      <trkpt lat="44.68266" lon="1.03882">
        <ele>276</ele>
        <time>2012-05-28T13:29:40Z</time>
      </trkpt>
      <trkpt lat="44.68233" lon="1.03893">
        <ele>276</ele>
        <time>2012-05-28T13:29:46Z</time>
      </trkpt>
      <trkpt lat="44.68222" lon="1.03873">
        <ele>274</ele>
        <time>2012-05-28T13:29:53Z</time>
      </trkpt>
      <trkpt lat="44.6825" lon="1.03829">
        <ele>272</ele>
        <time>2012-05-28T13:30:01Z</time>
      </trkpt>
      <trkpt lat="44.68265" lon="1.03783">
        <ele>272</ele>
        <time>2012-05-28T13:30:07Z</time>
      </trkpt>
      <trkpt lat="44.68268" lon="1.03729">
        <ele>272</ele>
        <time>2012-05-28T13:30:14Z</time>
      </trkpt>
      <trkpt lat="44.68274" lon="1.03682">
        <ele>275</ele>
        <time>2012-05-28T13:30:20Z</time>
      </trkpt>
      <trkpt lat="44.68273" lon="1.03621">
        <ele>279</ele>
        <time>2012-05-28T13:30:27Z</time>
      </trkpt>
      <trkpt lat="44.68271" lon="1.03559">
        <ele>280</ele>
        <time>2012-05-28T13:30:34Z</time>
      </trkpt>
      <trkpt lat="44.68268" lon="1.03487">
        <ele>280</ele>
        <time>2012-05-28T13:30:41Z</time>
      </trkpt>
      <trkpt lat="44.68257" lon="1.03437">
        <ele>280</ele>
        <time>2012-05-28T13:30:47Z</time>
      </trkpt>
      <trkpt lat="44.68243" lon="1.03402">
        <ele>280</ele>
        <time>2012-05-28T13:30:53Z</time>
      </trkpt>
      <trkpt lat="44.68217" lon="1.03358">
        <ele>279</ele>
        <time>2012-05-28T13:30:59Z</time>
      </trkpt>
      <trkpt lat="44.68187" lon="1.03323">
        <ele>276</ele>
        <time>2012-05-28T13:31:05Z</time>
      </trkpt>
      <trkpt lat="44.68174" lon="1.03313">
        <ele>274</ele>
        <time>2012-05-28T13:31:13Z</time>
      </trkpt>
      <trkpt lat="44.68149" lon="1.03305">
        <ele>273</ele>
        <time>2012-05-28T13:31:19Z</time>
      </trkpt>
      <trkpt lat="44.68111" lon="1.03276">
        <ele>273</ele>
        <time>2012-05-28T13:31:26Z</time>
      </trkpt>
      <trkpt lat="44.68087" lon="1.03229">
        <ele>273</ele>
        <time>2012-05-28T13:31:32Z</time>
      </trkpt>
      <trkpt lat="44.68066" lon="1.03177">
        <ele>271</ele>
        <time>2012-05-28T13:31:38Z</time>
      </trkpt>
      <trkpt lat="44.68052" lon="1.03117">
        <ele>268</ele>
        <time>2012-05-28T13:31:44Z</time>
      </trkpt>
      <trkpt lat="44.68035" lon="1.03054">
        <ele>265</ele>
        <time>2012-05-28T13:31:50Z</time>
      </trkpt>
      <trkpt lat="44.68018" lon="1.02991">
        <ele>259</ele>
        <time>2012-05-28T13:31:56Z</time>
      </trkpt>
      <trkpt lat="44.68003" lon="1.02956">
        <ele>251</ele>
        <time>2012-05-28T13:32:03Z</time>
      </trkpt>
      <trkpt lat="44.67973" lon="1.02917">
        <ele>244</ele>
        <time>2012-05-28T13:32:09Z</time>
      </trkpt>
      <trkpt lat="44.67928" lon="1.02876">
        <ele>235</ele>
        <time>2012-05-28T13:32:16Z</time>
      </trkpt>
      <trkpt lat="44.67892" lon="1.02801">
        <ele>226</ele>
        <time>2012-05-28T13:32:24Z</time>
      </trkpt>
      <trkpt lat="44.67877" lon="1.02729">
        <ele>224</ele>
        <time>2012-05-28T13:32:29Z</time>
      </trkpt>
      <trkpt lat="44.67865" lon="1.02667">
        <ele>221</ele>
        <time>2012-05-28T13:32:36Z</time>
      </trkpt>
      <trkpt lat="44.67881" lon="1.02602">
        <ele>217</ele>
        <time>2012-05-28T13:32:42Z</time>
      </trkpt>
      <trkpt lat="44.67883" lon="1.02532">
        <ele>214</ele>
        <time>2012-05-28T13:32:49Z</time>
      </trkpt>
      <trkpt lat="44.67875" lon="1.02447">
        <ele>211</ele>
        <time>2012-05-28T13:32:55Z</time>
      </trkpt>
      <trkpt lat="44.67861" lon="1.02413">
        <ele>208</ele>
        <time>2012-05-28T13:33:02Z</time>
      </trkpt>
      <trkpt lat="44.67848" lon="1.02361">
        <ele>205</ele>
        <time>2012-05-28T13:33:08Z</time>
      </trkpt>
      <trkpt lat="44.67843" lon="1.02303">
        <ele>203</ele>
        <time>2012-05-28T13:33:14Z</time>
      </trkpt>
      <trkpt lat="44.67844" lon="1.02253">
        <ele>200</ele>
        <time>2012-05-28T13:33:20Z</time>
      </trkpt>
      <trkpt lat="44.67853" lon="1.02234">
        <ele>196</ele>
        <time>2012-05-28T13:33:28Z</time>
      </trkpt>
      <trkpt lat="44.67875" lon="1.02216">
        <ele>194</ele>
        <time>2012-05-28T13:33:33Z</time>
      </trkpt>
      <trkpt lat="44.67901" lon="1.02194">
        <ele>194</ele>
        <time>2012-05-28T13:33:39Z</time>
      </trkpt>
      <trkpt lat="44.67924" lon="1.02175">
        <ele>194</ele>
        <time>2012-05-28T13:33:45Z</time>
      </trkpt>
      <trkpt lat="44.67944" lon="1.02158">
        <ele>194</ele>
        <time>2012-05-28T13:33:51Z</time>
      </trkpt>
      <trkpt lat="44.67966" lon="1.0215">
        <ele>194</ele>
        <time>2012-05-28T13:33:59Z</time>
      </trkpt>
      <trkpt lat="44.67977" lon="1.02126">
        <ele>197</ele>
        <time>2012-05-28T13:34:07Z</time>
      </trkpt>
      <trkpt lat="44.67985" lon="1.02111">
        <ele>199</ele>
        <time>2012-05-28T13:34:14Z</time>
      </trkpt>
      <trkpt lat="44.68008" lon="1.02078">
        <ele>199</ele>
        <time>2012-05-28T13:34:20Z</time>
      </trkpt>
      <trkpt lat="44.68028" lon="1.02063">
        <ele>199</ele>
        <time>2012-05-28T13:34:26Z</time>
      </trkpt>
      <trkpt lat="44.68043" lon="1.02062">
        <ele>199</ele>
        <time>2012-05-28T13:34:33Z</time>
      </trkpt>
      <trkpt lat="44.6807" lon="1.02055">
        <ele>199</ele>
        <time>2012-05-28T13:34:39Z</time>
      </trkpt>
      <trkpt lat="44.68105" lon="1.02047">
        <ele>199</ele>
        <time>2012-05-28T13:34:45Z</time>
      </trkpt>
      <trkpt lat="44.68124" lon="1.02044">
        <ele>199</ele>
        <time>2012-05-28T13:34:51Z</time>
      </trkpt>
      <trkpt lat="44.68135" lon="1.02042">
        <ele>199</ele>
        <time>2012-05-28T13:34:57Z</time>
      </trkpt>
      <trkpt lat="44.68158" lon="1.02038">
        <ele>199</ele>
        <time>2012-05-28T13:35:03Z</time>
      </trkpt>
      <trkpt lat="44.68186" lon="1.02035">
        <ele>201</ele>
        <time>2012-05-28T13:35:10Z</time>
      </trkpt>
      <trkpt lat="44.6821" lon="1.02033">
        <ele>203</ele>
        <time>2012-05-28T13:35:16Z</time>
      </trkpt>
      <trkpt lat="44.68224" lon="1.02034">
        <ele>205</ele>
        <time>2012-05-28T13:35:22Z</time>
      </trkpt>
      <trkpt lat="44.68265" lon="1.02037">
        <ele>206</ele>
        <time>2012-05-28T13:35:28Z</time>
      </trkpt>
      <trkpt lat="44.68299" lon="1.02038">
        <ele>206</ele>
        <time>2012-05-28T13:35:34Z</time>
      </trkpt>
      <trkpt lat="44.68333" lon="1.02038">
        <ele>203</ele>
        <time>2012-05-28T13:35:40Z</time>
      </trkpt>
      <trkpt lat="44.68367" lon="1.02032">
        <ele>200</ele>
        <time>2012-05-28T13:35:47Z</time>
      </trkpt>
      <trkpt lat="44.68399" lon="1.02023">
        <ele>199</ele>
        <time>2012-05-28T13:35:53Z</time>
      </trkpt>
      <trkpt lat="44.68434" lon="1.02008">
        <ele>198</ele>
        <time>2012-05-28T13:35:59Z</time>
      </trkpt>
      <trkpt lat="44.68437" lon="1.01984">
        <ele>197</ele>
        <time>2012-05-28T13:36:07Z</time>
      </trkpt>
      <trkpt lat="44.68459" lon="1.01975">
        <ele>197</ele>
        <time>2012-05-28T13:36:14Z</time>
      </trkpt>
      <trkpt lat="44.68493" lon="1.01966">
        <ele>197</ele>
        <time>2012-05-28T13:36:20Z</time>
      </trkpt>
      <trkpt lat="44.68498" lon="1.01964">
        <ele>197</ele>
        <time>2012-05-28T13:36:25Z</time>
      </trkpt>
      <trkpt lat="44.68496" lon="1.01963">
        <ele>197</ele>
        <time>2012-05-28T13:36:32Z</time>
      </trkpt>
      <trkpt lat="44.68494" lon="1.01966">
        <ele>197</ele>
        <time>2012-05-28T13:36:38Z</time>
      </trkpt>
      <trkpt lat="44.68494" lon="1.01968">
        <ele>197</ele>
        <time>2012-05-28T13:36:47Z</time>
      </trkpt>
    </trkseg>
  </trk>
</gpx>